<?xml version="1.0" encoding="UTF-8" standalone="no" ?>
<gpx xmlns="http://www.topografix.com/GPX/1/1" xmlns:xsi="http://www.w3.org/2001/XMLSchema-instance" xsi:schemaLocation="http://www.topografix.com/GPX/1/1 http://www.topografix.com/GPX/1/1/gpx.xsd" version="1.1" creator="VisuGPX - https://www.visugpx.com">
  <metadata>
    <name>St estephe - petite bouclette bucolique</name>
    <desc><![CDATA[petite boucle de l\'étang vers le rocheside]]></desc>
  </metadata>
  <trk>
    <name><![CDATA[Current Track: 09 MAR 2013 15:44]]></name>
    <trkseg>
      <trkpt lat="45.5896" lon="0.67466">
        <ele>230</ele>
        <time>2013-03-09T14:44:00Z</time>
      </trkpt>
      <trkpt lat="45.58966" lon="0.67465">
        <ele>230</ele>
        <time>2013-03-09T14:44:38Z</time>
      </trkpt>
      <trkpt lat="45.58965" lon="0.67467">
        <ele>230</ele>
        <time>2013-03-09T14:45:05Z</time>
      </trkpt>
      <trkpt lat="45.58967" lon="0.67471">
        <ele>230</ele>
        <time>2013-03-09T14:45:17Z</time>
      </trkpt>
      <trkpt lat="45.58966" lon="0.67478">
        <ele>230</ele>
        <time>2013-03-09T14:45:21Z</time>
      </trkpt>
      <trkpt lat="45.58968" lon="0.67518">
        <ele>231</ele>
        <time>2013-03-09T14:45:37Z</time>
      </trkpt>
      <trkpt lat="45.58969" lon="0.6752">
        <ele>231</ele>
        <time>2013-03-09T14:45:38Z</time>
      </trkpt>
      <trkpt lat="45.5898" lon="0.67539">
        <ele>232</ele>
        <time>2013-03-09T14:45:46Z</time>
      </trkpt>
      <trkpt lat="45.5898" lon="0.67542">
        <ele>232</ele>
        <time>2013-03-09T14:45:47Z</time>
      </trkpt>
      <trkpt lat="45.5898" lon="0.67545">
        <ele>232</ele>
        <time>2013-03-09T14:45:48Z</time>
      </trkpt>
      <trkpt lat="45.58987" lon="0.67593">
        <ele>235</ele>
        <time>2013-03-09T14:46:02Z</time>
      </trkpt>
      <trkpt lat="45.58994" lon="0.67636">
        <ele>236</ele>
        <time>2013-03-09T14:46:16Z</time>
      </trkpt>
      <trkpt lat="45.59001" lon="0.67686">
        <ele>239</ele>
        <time>2013-03-09T14:46:31Z</time>
      </trkpt>
      <trkpt lat="45.59002" lon="0.67698">
        <ele>240</ele>
        <time>2013-03-09T14:46:36Z</time>
      </trkpt>
      <trkpt lat="45.59003" lon="0.67706">
        <ele>240</ele>
        <time>2013-03-09T14:46:40Z</time>
      </trkpt>
      <trkpt lat="45.59005" lon="0.67707">
        <ele>240</ele>
        <time>2013-03-09T14:46:41Z</time>
      </trkpt>
      <trkpt lat="45.59008" lon="0.67702">
        <ele>240</ele>
        <time>2013-03-09T14:46:44Z</time>
      </trkpt>
      <trkpt lat="45.59009" lon="0.677">
        <ele>240</ele>
        <time>2013-03-09T14:46:45Z</time>
      </trkpt>
      <trkpt lat="45.5901" lon="0.67698">
        <ele>240</ele>
        <time>2013-03-09T14:46:46Z</time>
      </trkpt>
      <trkpt lat="45.59011" lon="0.67697">
        <ele>240</ele>
        <time>2013-03-09T14:46:51Z</time>
      </trkpt>
      <trkpt lat="45.59012" lon="0.67696">
        <ele>240</ele>
        <time>2013-03-09T14:46:52Z</time>
      </trkpt>
      <trkpt lat="45.59014" lon="0.67696">
        <ele>240</ele>
        <time>2013-03-09T14:46:53Z</time>
      </trkpt>
      <trkpt lat="45.59015" lon="0.67694">
        <ele>240</ele>
        <time>2013-03-09T14:46:54Z</time>
      </trkpt>
      <trkpt lat="45.59016" lon="0.67693">
        <ele>240</ele>
        <time>2013-03-09T14:46:55Z</time>
      </trkpt>
      <trkpt lat="45.59017" lon="0.67691">
        <ele>240</ele>
        <time>2013-03-09T14:46:56Z</time>
      </trkpt>
      <trkpt lat="45.59019" lon="0.67689">
        <ele>240</ele>
        <time>2013-03-09T14:46:57Z</time>
      </trkpt>
      <trkpt lat="45.59021" lon="0.67687">
        <ele>240</ele>
        <time>2013-03-09T14:46:58Z</time>
      </trkpt>
      <trkpt lat="45.59023" lon="0.67684">
        <ele>240</ele>
        <time>2013-03-09T14:46:59Z</time>
      </trkpt>
      <trkpt lat="45.5904" lon="0.67651">
        <ele>236</ele>
        <time>2013-03-09T14:47:09Z</time>
      </trkpt>
      <trkpt lat="45.59045" lon="0.67638">
        <ele>236</ele>
        <time>2013-03-09T14:47:12Z</time>
      </trkpt>
      <trkpt lat="45.59059" lon="0.67634">
        <ele>236</ele>
        <time>2013-03-09T14:47:16Z</time>
      </trkpt>
      <trkpt lat="45.59105" lon="0.67651">
        <ele>235</ele>
        <time>2013-03-09T14:47:31Z</time>
      </trkpt>
      <trkpt lat="45.59141" lon="0.6767">
        <ele>239</ele>
        <time>2013-03-09T14:47:45Z</time>
      </trkpt>
      <trkpt lat="45.59177" lon="0.67712">
        <ele>236</ele>
        <time>2013-03-09T14:47:59Z</time>
      </trkpt>
      <trkpt lat="45.59227" lon="0.6777">
        <ele>237</ele>
        <time>2013-03-09T14:48:16Z</time>
      </trkpt>
      <trkpt lat="45.59238" lon="0.67773">
        <ele>236</ele>
        <time>2013-03-09T14:48:20Z</time>
      </trkpt>
      <trkpt lat="45.59242" lon="0.67762">
        <ele>235</ele>
        <time>2013-03-09T14:48:24Z</time>
      </trkpt>
      <trkpt lat="45.59255" lon="0.67746">
        <ele>233</ele>
        <time>2013-03-09T14:48:32Z</time>
      </trkpt>
      <trkpt lat="45.59267" lon="0.67747">
        <ele>232</ele>
        <time>2013-03-09T14:48:35Z</time>
      </trkpt>
      <trkpt lat="45.59279" lon="0.6775">
        <ele>233</ele>
        <time>2013-03-09T14:48:38Z</time>
      </trkpt>
      <trkpt lat="45.59291" lon="0.67748">
        <ele>231</ele>
        <time>2013-03-09T14:48:41Z</time>
      </trkpt>
      <trkpt lat="45.59313" lon="0.67775">
        <ele>233</ele>
        <time>2013-03-09T14:48:48Z</time>
      </trkpt>
      <trkpt lat="45.59314" lon="0.67821">
        <ele>233</ele>
        <time>2013-03-09T14:48:59Z</time>
      </trkpt>
      <trkpt lat="45.59315" lon="0.67825">
        <ele>233</ele>
        <time>2013-03-09T14:49:01Z</time>
      </trkpt>
      <trkpt lat="45.59309" lon="0.67826">
        <ele>233</ele>
        <time>2013-03-09T14:49:06Z</time>
      </trkpt>
      <trkpt lat="45.59305" lon="0.67825">
        <ele>233</ele>
        <time>2013-03-09T14:49:10Z</time>
      </trkpt>
      <trkpt lat="45.59292" lon="0.67822">
        <ele>234</ele>
        <time>2013-03-09T14:49:17Z</time>
      </trkpt>
      <trkpt lat="45.59285" lon="0.67823">
        <ele>234</ele>
        <time>2013-03-09T14:49:21Z</time>
      </trkpt>
      <trkpt lat="45.59287" lon="0.67832">
        <ele>234</ele>
        <time>2013-03-09T14:49:27Z</time>
      </trkpt>
      <trkpt lat="45.59312" lon="0.67854">
        <ele>236</ele>
        <time>2013-03-09T14:49:41Z</time>
      </trkpt>
      <trkpt lat="45.59341" lon="0.67842">
        <ele>233</ele>
        <time>2013-03-09T14:49:53Z</time>
      </trkpt>
      <trkpt lat="45.59347" lon="0.67802">
        <ele>232</ele>
        <time>2013-03-09T14:50:04Z</time>
      </trkpt>
      <trkpt lat="45.59368" lon="0.67765">
        <ele>231</ele>
        <time>2013-03-09T14:50:17Z</time>
      </trkpt>
      <trkpt lat="45.59394" lon="0.67737">
        <ele>230</ele>
        <time>2013-03-09T14:50:29Z</time>
      </trkpt>
      <trkpt lat="45.59432" lon="0.67723">
        <ele>230</ele>
        <time>2013-03-09T14:50:42Z</time>
      </trkpt>
      <trkpt lat="45.59452" lon="0.67753">
        <ele>231</ele>
        <time>2013-03-09T14:50:54Z</time>
      </trkpt>
      <trkpt lat="45.59457" lon="0.67805">
        <ele>231</ele>
        <time>2013-03-09T14:51:07Z</time>
      </trkpt>
      <trkpt lat="45.59457" lon="0.67818">
        <ele>231</ele>
        <time>2013-03-09T14:51:10Z</time>
      </trkpt>
      <trkpt lat="45.59446" lon="0.67868">
        <ele>232</ele>
        <time>2013-03-09T14:51:22Z</time>
      </trkpt>
      <trkpt lat="45.59428" lon="0.67907">
        <ele>232</ele>
        <time>2013-03-09T14:51:34Z</time>
      </trkpt>
      <trkpt lat="45.59405" lon="0.67942">
        <ele>235</ele>
        <time>2013-03-09T14:51:46Z</time>
      </trkpt>
      <trkpt lat="45.59396" lon="0.67958">
        <ele>236</ele>
        <time>2013-03-09T14:51:51Z</time>
      </trkpt>
      <trkpt lat="45.594" lon="0.67991">
        <ele>236</ele>
        <time>2013-03-09T14:52:02Z</time>
      </trkpt>
      <trkpt lat="45.59416" lon="0.68001">
        <ele>234</ele>
        <time>2013-03-09T14:52:12Z</time>
      </trkpt>
      <trkpt lat="45.59425" lon="0.68008">
        <ele>235</ele>
        <time>2013-03-09T14:52:16Z</time>
      </trkpt>
      <trkpt lat="45.59437" lon="0.68021">
        <ele>235</ele>
        <time>2013-03-09T14:52:22Z</time>
      </trkpt>
      <trkpt lat="45.59446" lon="0.68016">
        <ele>235</ele>
        <time>2013-03-09T14:52:27Z</time>
      </trkpt>
      <trkpt lat="45.59458" lon="0.67995">
        <ele>234</ele>
        <time>2013-03-09T14:52:35Z</time>
      </trkpt>
      <trkpt lat="45.59464" lon="0.67985">
        <ele>234</ele>
        <time>2013-03-09T14:52:39Z</time>
      </trkpt>
      <trkpt lat="45.59483" lon="0.67936">
        <ele>234</ele>
        <time>2013-03-09T14:52:54Z</time>
      </trkpt>
      <trkpt lat="45.59489" lon="0.67913">
        <ele>233</ele>
        <time>2013-03-09T14:53:01Z</time>
      </trkpt>
      <trkpt lat="45.59491" lon="0.67896">
        <ele>233</ele>
        <time>2013-03-09T14:53:05Z</time>
      </trkpt>
      <trkpt lat="45.59503" lon="0.67833">
        <ele>232</ele>
        <time>2013-03-09T14:53:20Z</time>
      </trkpt>
      <trkpt lat="45.59531" lon="0.67782">
        <ele>231</ele>
        <time>2013-03-09T14:53:33Z</time>
      </trkpt>
      <trkpt lat="45.59545" lon="0.67781">
        <ele>231</ele>
        <time>2013-03-09T14:53:38Z</time>
      </trkpt>
      <trkpt lat="45.59585" lon="0.67781">
        <ele>232</ele>
        <time>2013-03-09T14:53:53Z</time>
      </trkpt>
      <trkpt lat="45.59621" lon="0.67769">
        <ele>233</ele>
        <time>2013-03-09T14:54:05Z</time>
      </trkpt>
      <trkpt lat="45.59654" lon="0.67759">
        <ele>233</ele>
        <time>2013-03-09T14:54:17Z</time>
      </trkpt>
      <trkpt lat="45.59688" lon="0.6777">
        <ele>234</ele>
        <time>2013-03-09T14:54:30Z</time>
      </trkpt>
      <trkpt lat="45.59714" lon="0.67783">
        <ele>234</ele>
        <time>2013-03-09T14:54:42Z</time>
      </trkpt>
      <trkpt lat="45.59741" lon="0.67785">
        <ele>234</ele>
        <time>2013-03-09T14:54:52Z</time>
      </trkpt>
      <trkpt lat="45.59768" lon="0.67763">
        <ele>234</ele>
        <time>2013-03-09T14:55:04Z</time>
      </trkpt>
      <trkpt lat="45.59771" lon="0.67759">
        <ele>234</ele>
        <time>2013-03-09T14:55:06Z</time>
      </trkpt>
      <trkpt lat="45.59788" lon="0.67732">
        <ele>232</ele>
        <time>2013-03-09T14:55:20Z</time>
      </trkpt>
      <trkpt lat="45.59791" lon="0.67726">
        <ele>232</ele>
        <time>2013-03-09T14:55:32Z</time>
      </trkpt>
      <trkpt lat="45.59792" lon="0.67726">
        <ele>232</ele>
        <time>2013-03-09T14:55:44Z</time>
      </trkpt>
      <trkpt lat="45.59792" lon="0.67725">
        <ele>232</ele>
        <time>2013-03-09T14:56:18Z</time>
      </trkpt>
      <trkpt lat="45.59792" lon="0.6773">
        <ele>232</ele>
        <time>2013-03-09T14:56:49Z</time>
      </trkpt>
      <trkpt lat="45.59793" lon="0.67725">
        <ele>232</ele>
        <time>2013-03-09T14:57:08Z</time>
      </trkpt>
      <trkpt lat="45.59794" lon="0.67707">
        <ele>232</ele>
        <time>2013-03-09T14:57:22Z</time>
      </trkpt>
      <trkpt lat="45.5979" lon="0.67707">
        <ele>232</ele>
        <time>2013-03-09T14:57:36Z</time>
      </trkpt>
      <trkpt lat="45.59784" lon="0.67702">
        <ele>231</ele>
        <time>2013-03-09T14:57:52Z</time>
      </trkpt>
      <trkpt lat="45.59772" lon="0.67676">
        <ele>231</ele>
        <time>2013-03-09T14:58:23Z</time>
      </trkpt>
      <trkpt lat="45.59768" lon="0.67667">
        <ele>231</ele>
        <time>2013-03-09T14:58:43Z</time>
      </trkpt>
      <trkpt lat="45.59772" lon="0.67664">
        <ele>234</ele>
        <time>2013-03-09T14:58:56Z</time>
      </trkpt>
      <trkpt lat="45.59771" lon="0.67662">
        <ele>234</ele>
        <time>2013-03-09T14:59:01Z</time>
      </trkpt>
      <trkpt lat="45.59767" lon="0.67661">
        <ele>233</ele>
        <time>2013-03-09T14:59:06Z</time>
      </trkpt>
      <trkpt lat="45.59757" lon="0.67662">
        <ele>232</ele>
        <time>2013-03-09T14:59:12Z</time>
      </trkpt>
      <trkpt lat="45.59727" lon="0.67664">
        <ele>233</ele>
        <time>2013-03-09T14:59:25Z</time>
      </trkpt>
      <trkpt lat="45.59705" lon="0.67658">
        <ele>234</ele>
        <time>2013-03-09T14:59:36Z</time>
      </trkpt>
      <trkpt lat="45.59675" lon="0.67648">
        <ele>234</ele>
        <time>2013-03-09T14:59:49Z</time>
      </trkpt>
      <trkpt lat="45.59643" lon="0.67644">
        <ele>233</ele>
        <time>2013-03-09T14:59:58Z</time>
      </trkpt>
      <trkpt lat="45.59616" lon="0.67629">
        <ele>233</ele>
        <time>2013-03-09T15:00:08Z</time>
      </trkpt>
      <trkpt lat="45.59583" lon="0.67608">
        <ele>232</ele>
        <time>2013-03-09T15:00:19Z</time>
      </trkpt>
      <trkpt lat="45.59563" lon="0.67582">
        <ele>232</ele>
        <time>2013-03-09T15:00:28Z</time>
      </trkpt>
      <trkpt lat="45.59562" lon="0.67575">
        <ele>232</ele>
        <time>2013-03-09T15:00:30Z</time>
      </trkpt>
      <trkpt lat="45.59565" lon="0.67548">
        <ele>232</ele>
        <time>2013-03-09T15:00:39Z</time>
      </trkpt>
      <trkpt lat="45.59567" lon="0.67544">
        <ele>232</ele>
        <time>2013-03-09T15:00:41Z</time>
      </trkpt>
      <trkpt lat="45.59565" lon="0.6751">
        <ele>232</ele>
        <time>2013-03-09T15:00:54Z</time>
      </trkpt>
      <trkpt lat="45.59561" lon="0.67503">
        <ele>232</ele>
        <time>2013-03-09T15:00:59Z</time>
      </trkpt>
      <trkpt lat="45.59544" lon="0.67495">
        <ele>233</ele>
        <time>2013-03-09T15:01:08Z</time>
      </trkpt>
      <trkpt lat="45.59514" lon="0.67511">
        <ele>233</ele>
        <time>2013-03-09T15:01:21Z</time>
      </trkpt>
      <trkpt lat="45.5949" lon="0.67537">
        <ele>231</ele>
        <time>2013-03-09T15:01:33Z</time>
      </trkpt>
      <trkpt lat="45.5947" lon="0.67556">
        <ele>231</ele>
        <time>2013-03-09T15:01:43Z</time>
      </trkpt>
      <trkpt lat="45.59447" lon="0.67549">
        <ele>231</ele>
        <time>2013-03-09T15:01:53Z</time>
      </trkpt>
      <trkpt lat="45.59419" lon="0.67523">
        <ele>231</ele>
        <time>2013-03-09T15:02:05Z</time>
      </trkpt>
      <trkpt lat="45.59393" lon="0.67498">
        <ele>232</ele>
        <time>2013-03-09T15:02:16Z</time>
      </trkpt>
      <trkpt lat="45.59358" lon="0.67456">
        <ele>232</ele>
        <time>2013-03-09T15:02:30Z</time>
      </trkpt>
      <trkpt lat="45.59334" lon="0.67432">
        <ele>233</ele>
        <time>2013-03-09T15:02:41Z</time>
      </trkpt>
      <trkpt lat="45.59304" lon="0.67414">
        <ele>233</ele>
        <time>2013-03-09T15:02:53Z</time>
      </trkpt>
      <trkpt lat="45.59275" lon="0.67374">
        <ele>232</ele>
        <time>2013-03-09T15:03:08Z</time>
      </trkpt>
      <trkpt lat="45.5927" lon="0.67352">
        <ele>232</ele>
        <time>2013-03-09T15:03:14Z</time>
      </trkpt>
      <trkpt lat="45.59274" lon="0.67338">
        <ele>232</ele>
        <time>2013-03-09T15:03:18Z</time>
      </trkpt>
      <trkpt lat="45.59294" lon="0.67287">
        <ele>233</ele>
        <time>2013-03-09T15:03:33Z</time>
      </trkpt>
      <trkpt lat="45.59299" lon="0.67226">
        <ele>232</ele>
        <time>2013-03-09T15:03:48Z</time>
      </trkpt>
      <trkpt lat="45.59277" lon="0.67177">
        <ele>232</ele>
        <time>2013-03-09T15:04:03Z</time>
      </trkpt>
      <trkpt lat="45.59243" lon="0.67149">
        <ele>232</ele>
        <time>2013-03-09T15:04:18Z</time>
      </trkpt>
      <trkpt lat="45.59197" lon="0.67124">
        <ele>230</ele>
        <time>2013-03-09T15:04:34Z</time>
      </trkpt>
      <trkpt lat="45.59169" lon="0.67111">
        <ele>230</ele>
        <time>2013-03-09T15:04:41Z</time>
      </trkpt>
      <trkpt lat="45.59149" lon="0.67099">
        <ele>233</ele>
        <time>2013-03-09T15:04:46Z</time>
      </trkpt>
      <trkpt lat="45.59148" lon="0.67095">
        <ele>233</ele>
        <time>2013-03-09T15:04:47Z</time>
      </trkpt>
      <trkpt lat="45.59148" lon="0.67091">
        <ele>233</ele>
        <time>2013-03-09T15:04:48Z</time>
      </trkpt>
      <trkpt lat="45.59149" lon="0.67089">
        <ele>233</ele>
        <time>2013-03-09T15:04:49Z</time>
      </trkpt>
      <trkpt lat="45.59151" lon="0.67086">
        <ele>233</ele>
        <time>2013-03-09T15:04:50Z</time>
      </trkpt>
      <trkpt lat="45.59153" lon="0.67081">
        <ele>232</ele>
        <time>2013-03-09T15:04:51Z</time>
      </trkpt>
      <trkpt lat="45.59154" lon="0.67077">
        <ele>232</ele>
        <time>2013-03-09T15:04:52Z</time>
      </trkpt>
      <trkpt lat="45.59155" lon="0.67072">
        <ele>232</ele>
        <time>2013-03-09T15:04:53Z</time>
      </trkpt>
      <trkpt lat="45.59161" lon="0.67018">
        <ele>232</ele>
        <time>2013-03-09T15:05:07Z</time>
      </trkpt>
      <trkpt lat="45.59157" lon="0.67">
        <ele>231</ele>
        <time>2013-03-09T15:05:13Z</time>
      </trkpt>
      <trkpt lat="45.59156" lon="0.66997">
        <ele>229</ele>
        <time>2013-03-09T15:05:14Z</time>
      </trkpt>
      <trkpt lat="45.59155" lon="0.66993">
        <ele>229</ele>
        <time>2013-03-09T15:05:15Z</time>
      </trkpt>
      <trkpt lat="45.59155" lon="0.66989">
        <ele>229</ele>
        <time>2013-03-09T15:05:16Z</time>
      </trkpt>
      <trkpt lat="45.59154" lon="0.66984">
        <ele>229</ele>
        <time>2013-03-09T15:05:17Z</time>
      </trkpt>
      <trkpt lat="45.59153" lon="0.6698">
        <ele>229</ele>
        <time>2013-03-09T15:05:18Z</time>
      </trkpt>
      <trkpt lat="45.59152" lon="0.66976">
        <ele>229</ele>
        <time>2013-03-09T15:05:19Z</time>
      </trkpt>
      <trkpt lat="45.59152" lon="0.66973">
        <ele>229</ele>
        <time>2013-03-09T15:05:20Z</time>
      </trkpt>
      <trkpt lat="45.59151" lon="0.66968">
        <ele>229</ele>
        <time>2013-03-09T15:05:21Z</time>
      </trkpt>
      <trkpt lat="45.59138" lon="0.66925">
        <ele>228</ele>
        <time>2013-03-09T15:05:35Z</time>
      </trkpt>
      <trkpt lat="45.59108" lon="0.66899">
        <ele>227</ele>
        <time>2013-03-09T15:05:46Z</time>
      </trkpt>
      <trkpt lat="45.59074" lon="0.669">
        <ele>228</ele>
        <time>2013-03-09T15:05:58Z</time>
      </trkpt>
      <trkpt lat="45.59032" lon="0.66927">
        <ele>229</ele>
        <time>2013-03-09T15:06:13Z</time>
      </trkpt>
      <trkpt lat="45.58988" lon="0.6695">
        <ele>228</ele>
        <time>2013-03-09T15:06:29Z</time>
      </trkpt>
      <trkpt lat="45.58949" lon="0.66975">
        <ele>229</ele>
        <time>2013-03-09T15:06:44Z</time>
      </trkpt>
      <trkpt lat="45.58919" lon="0.66996">
        <ele>230</ele>
        <time>2013-03-09T15:06:57Z</time>
      </trkpt>
      <trkpt lat="45.58879" lon="0.67006">
        <ele>232</ele>
        <time>2013-03-09T15:07:12Z</time>
      </trkpt>
      <trkpt lat="45.58859" lon="0.66981">
        <ele>229</ele>
        <time>2013-03-09T15:07:22Z</time>
      </trkpt>
      <trkpt lat="45.5885" lon="0.66958">
        <ele>229</ele>
        <time>2013-03-09T15:07:27Z</time>
      </trkpt>
      <trkpt lat="45.58858" lon="0.66944">
        <ele>228</ele>
        <time>2013-03-09T15:07:33Z</time>
      </trkpt>
      <trkpt lat="45.58869" lon="0.66944">
        <ele>228</ele>
        <time>2013-03-09T15:07:37Z</time>
      </trkpt>
      <trkpt lat="45.58871" lon="0.66925">
        <ele>228</ele>
        <time>2013-03-09T15:07:46Z</time>
      </trkpt>
      <trkpt lat="45.58872" lon="0.669">
        <ele>227</ele>
        <time>2013-03-09T15:07:55Z</time>
      </trkpt>
      <trkpt lat="45.58877" lon="0.66892">
        <ele>226</ele>
        <time>2013-03-09T15:07:59Z</time>
      </trkpt>
      <trkpt lat="45.58878" lon="0.66888">
        <ele>226</ele>
        <time>2013-03-09T15:08:01Z</time>
      </trkpt>
      <trkpt lat="45.58878" lon="0.66885">
        <ele>226</ele>
        <time>2013-03-09T15:08:03Z</time>
      </trkpt>
      <trkpt lat="45.58885" lon="0.66857">
        <ele>226</ele>
        <time>2013-03-09T15:08:14Z</time>
      </trkpt>
      <trkpt lat="45.58894" lon="0.66845">
        <ele>226</ele>
        <time>2013-03-09T15:08:19Z</time>
      </trkpt>
      <trkpt lat="45.58902" lon="0.66836">
        <ele>225</ele>
        <time>2013-03-09T15:08:24Z</time>
      </trkpt>
      <trkpt lat="45.58914" lon="0.66813">
        <ele>224</ele>
        <time>2013-03-09T15:08:36Z</time>
      </trkpt>
      <trkpt lat="45.58922" lon="0.66806">
        <ele>224</ele>
        <time>2013-03-09T15:08:41Z</time>
      </trkpt>
      <trkpt lat="45.58925" lon="0.66804">
        <ele>224</ele>
        <time>2013-03-09T15:08:43Z</time>
      </trkpt>
      <trkpt lat="45.58931" lon="0.66797">
        <ele>225</ele>
        <time>2013-03-09T15:08:47Z</time>
      </trkpt>
      <trkpt lat="45.58932" lon="0.66787">
        <ele>224</ele>
        <time>2013-03-09T15:08:52Z</time>
      </trkpt>
      <trkpt lat="45.58933" lon="0.66779">
        <ele>224</ele>
        <time>2013-03-09T15:08:56Z</time>
      </trkpt>
      <trkpt lat="45.58937" lon="0.66758">
        <ele>224</ele>
        <time>2013-03-09T15:09:07Z</time>
      </trkpt>
      <trkpt lat="45.58943" lon="0.66742">
        <ele>222</ele>
        <time>2013-03-09T15:09:23Z</time>
      </trkpt>
      <trkpt lat="45.58944" lon="0.66743">
        <ele>222</ele>
        <time>2013-03-09T15:09:40Z</time>
      </trkpt>
      <trkpt lat="45.58932" lon="0.66745">
        <ele>222</ele>
        <time>2013-03-09T15:10:06Z</time>
      </trkpt>
      <trkpt lat="45.58936" lon="0.66745">
        <ele>222</ele>
        <time>2013-03-09T15:10:34Z</time>
      </trkpt>
      <trkpt lat="45.58938" lon="0.66741">
        <ele>222</ele>
        <time>2013-03-09T15:11:00Z</time>
      </trkpt>
      <trkpt lat="45.58939" lon="0.66744">
        <ele>222</ele>
        <time>2013-03-09T15:11:27Z</time>
      </trkpt>
      <trkpt lat="45.58938" lon="0.66745">
        <ele>222</ele>
        <time>2013-03-09T15:12:02Z</time>
      </trkpt>
      <trkpt lat="45.5894" lon="0.66744">
        <ele>222</ele>
        <time>2013-03-09T15:12:21Z</time>
      </trkpt>
      <trkpt lat="45.58937" lon="0.66737">
        <ele>222</ele>
        <time>2013-03-09T15:12:55Z</time>
      </trkpt>
      <trkpt lat="45.58942" lon="0.66741">
        <ele>222</ele>
        <time>2013-03-09T15:13:24Z</time>
      </trkpt>
      <trkpt lat="45.58942" lon="0.66742">
        <ele>222</ele>
        <time>2013-03-09T15:13:42Z</time>
      </trkpt>
      <trkpt lat="45.58941" lon="0.6674">
        <ele>222</ele>
        <time>2013-03-09T15:14:05Z</time>
      </trkpt>
      <trkpt lat="45.58942" lon="0.66737">
        <ele>222</ele>
        <time>2013-03-09T15:14:35Z</time>
      </trkpt>
      <trkpt lat="45.58945" lon="0.66735">
        <ele>222</ele>
        <time>2013-03-09T15:14:58Z</time>
      </trkpt>
      <trkpt lat="45.58947" lon="0.66737">
        <ele>223</ele>
        <time>2013-03-09T15:15:09Z</time>
      </trkpt>
      <trkpt lat="45.5895" lon="0.66732">
        <ele>223</ele>
        <time>2013-03-09T15:15:25Z</time>
      </trkpt>
      <trkpt lat="45.58952" lon="0.66729">
        <ele>223</ele>
        <time>2013-03-09T15:15:38Z</time>
      </trkpt>
      <trkpt lat="45.58953" lon="0.66724">
        <ele>223</ele>
        <time>2013-03-09T15:15:42Z</time>
      </trkpt>
      <trkpt lat="45.58952" lon="0.66712">
        <ele>222</ele>
        <time>2013-03-09T15:15:48Z</time>
      </trkpt>
      <trkpt lat="45.58954" lon="0.66704">
        <ele>222</ele>
        <time>2013-03-09T15:16:03Z</time>
      </trkpt>
      <trkpt lat="45.58954" lon="0.66692">
        <ele>222</ele>
        <time>2013-03-09T15:16:10Z</time>
      </trkpt>
      <trkpt lat="45.58961" lon="0.66665">
        <ele>216</ele>
        <time>2013-03-09T15:16:22Z</time>
      </trkpt>
      <trkpt lat="45.58974" lon="0.6665">
        <ele>217</ele>
        <time>2013-03-09T15:16:31Z</time>
      </trkpt>
      <trkpt lat="45.58999" lon="0.66638">
        <ele>218</ele>
        <time>2013-03-09T15:16:43Z</time>
      </trkpt>
      <trkpt lat="45.59027" lon="0.66617">
        <ele>220</ele>
        <time>2013-03-09T15:16:55Z</time>
      </trkpt>
      <trkpt lat="45.59034" lon="0.66614">
        <ele>220</ele>
        <time>2013-03-09T15:16:58Z</time>
      </trkpt>
      <trkpt lat="45.59036" lon="0.66615">
        <ele>220</ele>
        <time>2013-03-09T15:16:59Z</time>
      </trkpt>
      <trkpt lat="45.59037" lon="0.66616">
        <ele>220</ele>
        <time>2013-03-09T15:17:00Z</time>
      </trkpt>
      <trkpt lat="45.59035" lon="0.66618">
        <ele>220</ele>
        <time>2013-03-09T15:17:09Z</time>
      </trkpt>
      <trkpt lat="45.5904" lon="0.66615">
        <ele>220</ele>
        <time>2013-03-09T15:17:21Z</time>
      </trkpt>
      <trkpt lat="45.59039" lon="0.66613">
        <ele>220</ele>
        <time>2013-03-09T15:17:37Z</time>
      </trkpt>
      <trkpt lat="45.59038" lon="0.66615">
        <ele>220</ele>
        <time>2013-03-09T15:18:01Z</time>
      </trkpt>
      <trkpt lat="45.59038" lon="0.66611">
        <ele>219</ele>
        <time>2013-03-09T15:18:24Z</time>
      </trkpt>
      <trkpt lat="45.59038" lon="0.66616">
        <ele>220</ele>
        <time>2013-03-09T15:18:56Z</time>
      </trkpt>
      <trkpt lat="45.59039" lon="0.66616">
        <ele>220</ele>
        <time>2013-03-09T15:19:19Z</time>
      </trkpt>
      <trkpt lat="45.59037" lon="0.66618">
        <ele>220</ele>
        <time>2013-03-09T15:19:46Z</time>
      </trkpt>
      <trkpt lat="45.59036" lon="0.66613">
        <ele>220</ele>
        <time>2013-03-09T15:20:22Z</time>
      </trkpt>
      <trkpt lat="45.59036" lon="0.66613">
        <ele>219</ele>
        <time>2013-03-09T15:20:48Z</time>
      </trkpt>
      <trkpt lat="45.59039" lon="0.66615">
        <ele>220</ele>
        <time>2013-03-09T15:21:13Z</time>
      </trkpt>
      <trkpt lat="45.59041" lon="0.66614">
        <ele>220</ele>
        <time>2013-03-09T15:21:37Z</time>
      </trkpt>
      <trkpt lat="45.59041" lon="0.66616">
        <ele>220</ele>
        <time>2013-03-09T15:22:08Z</time>
      </trkpt>
      <trkpt lat="45.5904" lon="0.66612">
        <ele>220</ele>
        <time>2013-03-09T15:22:40Z</time>
      </trkpt>
      <trkpt lat="45.59039" lon="0.66618">
        <ele>220</ele>
        <time>2013-03-09T15:23:12Z</time>
      </trkpt>
      <trkpt lat="45.59038" lon="0.66617">
        <ele>220</ele>
        <time>2013-03-09T15:23:31Z</time>
      </trkpt>
      <trkpt lat="45.59037" lon="0.66617">
        <ele>220</ele>
        <time>2013-03-09T15:23:38Z</time>
      </trkpt>
      <trkpt lat="45.59035" lon="0.66619">
        <ele>220</ele>
        <time>2013-03-09T15:23:41Z</time>
      </trkpt>
      <trkpt lat="45.59033" lon="0.66622">
        <ele>220</ele>
        <time>2013-03-09T15:23:45Z</time>
      </trkpt>
      <trkpt lat="45.59023" lon="0.66637">
        <ele>221</ele>
        <time>2013-03-09T15:23:59Z</time>
      </trkpt>
      <trkpt lat="45.59015" lon="0.66652">
        <ele>223</ele>
        <time>2013-03-09T15:24:06Z</time>
      </trkpt>
      <trkpt lat="45.59008" lon="0.66682">
        <ele>227</ele>
        <time>2013-03-09T15:24:18Z</time>
      </trkpt>
      <trkpt lat="45.59004" lon="0.66712">
        <ele>228</ele>
        <time>2013-03-09T15:24:29Z</time>
      </trkpt>
      <trkpt lat="45.59006" lon="0.66741">
        <ele>229</ele>
        <time>2013-03-09T15:24:40Z</time>
      </trkpt>
      <trkpt lat="45.59006" lon="0.66753">
        <ele>229</ele>
        <time>2013-03-09T15:24:58Z</time>
      </trkpt>
      <trkpt lat="45.59006" lon="0.6676">
        <ele>229</ele>
        <time>2013-03-09T15:25:01Z</time>
      </trkpt>
      <trkpt lat="45.59008" lon="0.66795">
        <ele>228</ele>
        <time>2013-03-09T15:25:12Z</time>
      </trkpt>
      <trkpt lat="45.59008" lon="0.66837">
        <ele>227</ele>
        <time>2013-03-09T15:25:26Z</time>
      </trkpt>
      <trkpt lat="45.59011" lon="0.66875">
        <ele>227</ele>
        <time>2013-03-09T15:25:35Z</time>
      </trkpt>
      <trkpt lat="45.59011" lon="0.66906">
        <ele>226</ele>
        <time>2013-03-09T15:25:40Z</time>
      </trkpt>
      <trkpt lat="45.5901" lon="0.66911">
        <ele>225</ele>
        <time>2013-03-09T15:25:41Z</time>
      </trkpt>
      <trkpt lat="45.59009" lon="0.66922">
        <ele>226</ele>
        <time>2013-03-09T15:25:48Z</time>
      </trkpt>
      <trkpt lat="45.59017" lon="0.66927">
        <ele>228</ele>
        <time>2013-03-09T15:25:53Z</time>
      </trkpt>
      <trkpt lat="45.59019" lon="0.66931">
        <ele>228</ele>
        <time>2013-03-09T15:25:56Z</time>
      </trkpt>
      <trkpt lat="45.59025" lon="0.66932">
        <ele>229</ele>
        <time>2013-03-09T15:26:12Z</time>
      </trkpt>
      <trkpt lat="45.59023" lon="0.66931">
        <ele>228</ele>
        <time>2013-03-09T15:26:15Z</time>
      </trkpt>
      <trkpt lat="45.59017" lon="0.66936">
        <ele>228</ele>
        <time>2013-03-09T15:26:20Z</time>
      </trkpt>
      <trkpt lat="45.58989" lon="0.6695">
        <ele>228</ele>
        <time>2013-03-09T15:26:33Z</time>
      </trkpt>
      <trkpt lat="45.58951" lon="0.66975">
        <ele>229</ele>
        <time>2013-03-09T15:26:47Z</time>
      </trkpt>
      <trkpt lat="45.58949" lon="0.66978">
        <ele>229</ele>
        <time>2013-03-09T15:26:48Z</time>
      </trkpt>
      <trkpt lat="45.58947" lon="0.6698">
        <ele>229</ele>
        <time>2013-03-09T15:26:49Z</time>
      </trkpt>
      <trkpt lat="45.58945" lon="0.66982">
        <ele>229</ele>
        <time>2013-03-09T15:26:50Z</time>
      </trkpt>
      <trkpt lat="45.58943" lon="0.66984">
        <ele>229</ele>
        <time>2013-03-09T15:26:51Z</time>
      </trkpt>
      <trkpt lat="45.5894" lon="0.66986">
        <ele>229</ele>
        <time>2013-03-09T15:26:52Z</time>
      </trkpt>
      <trkpt lat="45.58938" lon="0.66988">
        <ele>229</ele>
        <time>2013-03-09T15:26:53Z</time>
      </trkpt>
      <trkpt lat="45.58936" lon="0.6699">
        <ele>229</ele>
        <time>2013-03-09T15:26:54Z</time>
      </trkpt>
      <trkpt lat="45.58933" lon="0.66992">
        <ele>229</ele>
        <time>2013-03-09T15:26:55Z</time>
      </trkpt>
      <trkpt lat="45.58905" lon="0.67003">
        <ele>231</ele>
        <time>2013-03-09T15:27:07Z</time>
      </trkpt>
      <trkpt lat="45.58877" lon="0.67007">
        <ele>232</ele>
        <time>2013-03-09T15:27:17Z</time>
      </trkpt>
      <trkpt lat="45.58875" lon="0.67006">
        <ele>232</ele>
        <time>2013-03-09T15:27:18Z</time>
      </trkpt>
      <trkpt lat="45.58859" lon="0.66977">
        <ele>229</ele>
        <time>2013-03-09T15:27:26Z</time>
      </trkpt>
      <trkpt lat="45.5884" lon="0.66936">
        <ele>228</ele>
        <time>2013-03-09T15:27:35Z</time>
      </trkpt>
      <trkpt lat="45.5885" lon="0.66898">
        <ele>227</ele>
        <time>2013-03-09T15:27:45Z</time>
      </trkpt>
      <trkpt lat="45.58857" lon="0.66886">
        <ele>227</ele>
        <time>2013-03-09T15:27:54Z</time>
      </trkpt>
      <trkpt lat="45.58854" lon="0.66882">
        <ele>227</ele>
        <time>2013-03-09T15:28:26Z</time>
      </trkpt>
      <trkpt lat="45.58855" lon="0.66875">
        <ele>227</ele>
        <time>2013-03-09T15:29:07Z</time>
      </trkpt>
      <trkpt lat="45.58853" lon="0.66881">
        <ele>227</ele>
        <time>2013-03-09T15:29:35Z</time>
      </trkpt>
      <trkpt lat="45.58853" lon="0.6687">
        <ele>227</ele>
        <time>2013-03-09T15:30:02Z</time>
      </trkpt>
      <trkpt lat="45.58854" lon="0.66871">
        <ele>227</ele>
        <time>2013-03-09T15:30:35Z</time>
      </trkpt>
      <trkpt lat="45.58858" lon="0.66878">
        <ele>227</ele>
        <time>2013-03-09T15:31:06Z</time>
      </trkpt>
      <trkpt lat="45.58856" lon="0.66883">
        <ele>227</ele>
        <time>2013-03-09T15:31:25Z</time>
      </trkpt>
      <trkpt lat="45.58857" lon="0.66885">
        <ele>227</ele>
        <time>2013-03-09T15:31:41Z</time>
      </trkpt>
      <trkpt lat="45.58857" lon="0.66888">
        <ele>227</ele>
        <time>2013-03-09T15:31:57Z</time>
      </trkpt>
      <trkpt lat="45.58855" lon="0.6689">
        <ele>227</ele>
        <time>2013-03-09T15:32:00Z</time>
      </trkpt>
      <trkpt lat="45.58848" lon="0.66897">
        <ele>227</ele>
        <time>2013-03-09T15:32:07Z</time>
      </trkpt>
      <trkpt lat="45.58838" lon="0.66926">
        <ele>228</ele>
        <time>2013-03-09T15:32:21Z</time>
      </trkpt>
      <trkpt lat="45.58849" lon="0.66959">
        <ele>229</ele>
        <time>2013-03-09T15:32:36Z</time>
      </trkpt>
      <trkpt lat="45.58863" lon="0.66991">
        <ele>229</ele>
        <time>2013-03-09T15:32:49Z</time>
      </trkpt>
      <trkpt lat="45.58876" lon="0.67005">
        <ele>232</ele>
        <time>2013-03-09T15:32:58Z</time>
      </trkpt>
      <trkpt lat="45.58903" lon="0.67002">
        <ele>231</ele>
        <time>2013-03-09T15:33:10Z</time>
      </trkpt>
      <trkpt lat="45.58928" lon="0.66998">
        <ele>229</ele>
        <time>2013-03-09T15:33:22Z</time>
      </trkpt>
      <trkpt lat="45.58929" lon="0.66997">
        <ele>229</ele>
        <time>2013-03-09T15:33:23Z</time>
      </trkpt>
      <trkpt lat="45.58929" lon="0.66995">
        <ele>229</ele>
        <time>2013-03-09T15:33:24Z</time>
      </trkpt>
      <trkpt lat="45.58924" lon="0.66998">
        <ele>230</ele>
        <time>2013-03-09T15:33:30Z</time>
      </trkpt>
      <trkpt lat="45.58915" lon="0.67018">
        <ele>232</ele>
        <time>2013-03-09T15:33:40Z</time>
      </trkpt>
      <trkpt lat="45.589" lon="0.6705">
        <ele>234</ele>
        <time>2013-03-09T15:33:55Z</time>
      </trkpt>
      <trkpt lat="45.58884" lon="0.67086">
        <ele>238</ele>
        <time>2013-03-09T15:34:10Z</time>
      </trkpt>
      <trkpt lat="45.58865" lon="0.67123">
        <ele>238</ele>
        <time>2013-03-09T15:34:25Z</time>
      </trkpt>
      <trkpt lat="45.58844" lon="0.67163">
        <ele>238</ele>
        <time>2013-03-09T15:34:40Z</time>
      </trkpt>
      <trkpt lat="45.58824" lon="0.67202">
        <ele>238</ele>
        <time>2013-03-09T15:34:56Z</time>
      </trkpt>
      <trkpt lat="45.58808" lon="0.67223">
        <ele>238</ele>
        <time>2013-03-09T15:35:07Z</time>
      </trkpt>
      <trkpt lat="45.58808" lon="0.67228">
        <ele>238</ele>
        <time>2013-03-09T15:35:10Z</time>
      </trkpt>
      <trkpt lat="45.5883" lon="0.67249">
        <ele>237</ele>
        <time>2013-03-09T15:35:25Z</time>
      </trkpt>
      <trkpt lat="45.58845" lon="0.6728">
        <ele>237</ele>
        <time>2013-03-09T15:35:38Z</time>
      </trkpt>
      <trkpt lat="45.58853" lon="0.67331">
        <ele>237</ele>
        <time>2013-03-09T15:35:53Z</time>
      </trkpt>
      <trkpt lat="45.58861" lon="0.67396">
        <ele>235</ele>
        <time>2013-03-09T15:36:09Z</time>
      </trkpt>
      <trkpt lat="45.58864" lon="0.67413">
        <ele>234</ele>
        <time>2013-03-09T15:36:15Z</time>
      </trkpt>
      <trkpt lat="45.58865" lon="0.67415">
        <ele>234</ele>
        <time>2013-03-09T15:36:16Z</time>
      </trkpt>
      <trkpt lat="45.58867" lon="0.67417">
        <ele>234</ele>
        <time>2013-03-09T15:36:17Z</time>
      </trkpt>
      <trkpt lat="45.58868" lon="0.67418">
        <ele>233</ele>
        <time>2013-03-09T15:36:18Z</time>
      </trkpt>
      <trkpt lat="45.5887" lon="0.6742">
        <ele>233</ele>
        <time>2013-03-09T15:36:19Z</time>
      </trkpt>
      <trkpt lat="45.58872" lon="0.67421">
        <ele>233</ele>
        <time>2013-03-09T15:36:20Z</time>
      </trkpt>
      <trkpt lat="45.58874" lon="0.67423">
        <ele>233</ele>
        <time>2013-03-09T15:36:21Z</time>
      </trkpt>
      <trkpt lat="45.58876" lon="0.67424">
        <ele>232</ele>
        <time>2013-03-09T15:36:22Z</time>
      </trkpt>
      <trkpt lat="45.58878" lon="0.67426">
        <ele>232</ele>
        <time>2013-03-09T15:36:23Z</time>
      </trkpt>
      <trkpt lat="45.5888" lon="0.67429">
        <ele>232</ele>
        <time>2013-03-09T15:36:24Z</time>
      </trkpt>
      <trkpt lat="45.58905" lon="0.67466">
        <ele>232</ele>
        <time>2013-03-09T15:36:36Z</time>
      </trkpt>
      <trkpt lat="45.58932" lon="0.67525">
        <ele>231</ele>
        <time>2013-03-09T15:36:52Z</time>
      </trkpt>
      <trkpt lat="45.5896" lon="0.67567">
        <ele>232</ele>
        <time>2013-03-09T15:37:06Z</time>
      </trkpt>
      <trkpt lat="45.58988" lon="0.67597">
        <ele>235</ele>
        <time>2013-03-09T15:37:18Z</time>
      </trkpt>
      <trkpt lat="45.58996" lon="0.67643">
        <ele>236</ele>
        <time>2013-03-09T15:37:32Z</time>
      </trkpt>
      <trkpt lat="45.59004" lon="0.67701">
        <ele>240</ele>
        <time>2013-03-09T15:37:47Z</time>
      </trkpt>
      <trkpt lat="45.59009" lon="0.67736">
        <ele>239</ele>
        <time>2013-03-09T15:37:59Z</time>
      </trkpt>
      <trkpt lat="45.59017" lon="0.67781">
        <ele>241</ele>
        <time>2013-03-09T15:38:12Z</time>
      </trkpt>
      <trkpt lat="45.59022" lon="0.67859">
        <ele>242</ele>
        <time>2013-03-09T15:38:29Z</time>
      </trkpt>
      <trkpt lat="45.59011" lon="0.67919">
        <ele>243</ele>
        <time>2013-03-09T15:38:42Z</time>
      </trkpt>
      <trkpt lat="45.59" lon="0.67976">
        <ele>246</ele>
        <time>2013-03-09T15:38:56Z</time>
      </trkpt>
      <trkpt lat="45.58997" lon="0.6798">
        <ele>245</ele>
        <time>2013-03-09T15:38:58Z</time>
      </trkpt>
      <trkpt lat="45.58994" lon="0.67981">
        <ele>245</ele>
        <time>2013-03-09T15:38:59Z</time>
      </trkpt>
      <trkpt lat="45.58962" lon="0.67975">
        <ele>243</ele>
        <time>2013-03-09T15:39:11Z</time>
      </trkpt>
      <trkpt lat="45.58925" lon="0.67982">
        <ele>243</ele>
        <time>2013-03-09T15:39:23Z</time>
      </trkpt>
      <trkpt lat="45.58886" lon="0.68003">
        <ele>245</ele>
        <time>2013-03-09T15:39:38Z</time>
      </trkpt>
      <trkpt lat="45.58855" lon="0.67998">
        <ele>243</ele>
        <time>2013-03-09T15:39:51Z</time>
      </trkpt>
      <trkpt lat="45.58828" lon="0.67989">
        <ele>244</ele>
        <time>2013-03-09T15:40:04Z</time>
      </trkpt>
      <trkpt lat="45.5882" lon="0.67992">
        <ele>244</ele>
        <time>2013-03-09T15:40:10Z</time>
      </trkpt>
      <trkpt lat="45.58819" lon="0.68002">
        <ele>245</ele>
        <time>2013-03-09T15:40:15Z</time>
      </trkpt>
      <trkpt lat="45.58803" lon="0.68026">
        <ele>245</ele>
        <time>2013-03-09T15:40:29Z</time>
      </trkpt>
      <trkpt lat="45.5878" lon="0.6804">
        <ele>246</ele>
        <time>2013-03-09T15:40:41Z</time>
      </trkpt>
      <trkpt lat="45.58776" lon="0.68044">
        <ele>246</ele>
        <time>2013-03-09T15:40:44Z</time>
      </trkpt>
      <trkpt lat="45.58774" lon="0.68046">
        <ele>246</ele>
        <time>2013-03-09T15:40:45Z</time>
      </trkpt>
      <trkpt lat="45.58772" lon="0.68049">
        <ele>246</ele>
        <time>2013-03-09T15:40:46Z</time>
      </trkpt>
      <trkpt lat="45.5877" lon="0.68051">
        <ele>246</ele>
        <time>2013-03-09T15:40:47Z</time>
      </trkpt>
      <trkpt lat="45.58769" lon="0.68054">
        <ele>246</ele>
        <time>2013-03-09T15:40:48Z</time>
      </trkpt>
      <trkpt lat="45.58767" lon="0.68057">
        <ele>245</ele>
        <time>2013-03-09T15:40:49Z</time>
      </trkpt>
      <trkpt lat="45.58766" lon="0.6806">
        <ele>245</ele>
        <time>2013-03-09T15:40:50Z</time>
      </trkpt>
      <trkpt lat="45.58765" lon="0.68062">
        <ele>245</ele>
        <time>2013-03-09T15:40:51Z</time>
      </trkpt>
      <trkpt lat="45.58747" lon="0.68099">
        <ele>243</ele>
        <time>2013-03-09T15:41:03Z</time>
      </trkpt>
      <trkpt lat="45.58732" lon="0.68118">
        <ele>242</ele>
        <time>2013-03-09T15:41:08Z</time>
      </trkpt>
      <trkpt lat="45.58716" lon="0.6814">
        <ele>241</ele>
        <time>2013-03-09T15:41:14Z</time>
      </trkpt>
      <trkpt lat="45.58709" lon="0.68179">
        <ele>238</ele>
        <time>2013-03-09T15:41:19Z</time>
      </trkpt>
      <trkpt lat="45.58698" lon="0.68233">
        <ele>237</ele>
        <time>2013-03-09T15:41:24Z</time>
      </trkpt>
      <trkpt lat="45.58688" lon="0.68286">
        <ele>237</ele>
        <time>2013-03-09T15:41:30Z</time>
      </trkpt>
      <trkpt lat="45.58686" lon="0.68292">
        <ele>237</ele>
        <time>2013-03-09T15:41:31Z</time>
      </trkpt>
      <trkpt lat="45.58684" lon="0.68333">
        <ele>239</ele>
        <time>2013-03-09T15:41:41Z</time>
      </trkpt>
      <trkpt lat="45.5868" lon="0.6836">
        <ele>241</ele>
        <time>2013-03-09T15:41:51Z</time>
      </trkpt>
      <trkpt lat="45.58675" lon="0.68378">
        <ele>242</ele>
        <time>2013-03-09T15:41:58Z</time>
      </trkpt>
      <trkpt lat="45.58668" lon="0.68382">
        <ele>242</ele>
        <time>2013-03-09T15:42:12Z</time>
      </trkpt>
      <trkpt lat="45.58645" lon="0.68382">
        <ele>240</ele>
        <time>2013-03-09T15:42:23Z</time>
      </trkpt>
      <trkpt lat="45.58626" lon="0.68383">
        <ele>240</ele>
        <time>2013-03-09T15:42:34Z</time>
      </trkpt>
      <trkpt lat="45.58604" lon="0.68386">
        <ele>239</ele>
        <time>2013-03-09T15:42:44Z</time>
      </trkpt>
      <trkpt lat="45.58563" lon="0.68393">
        <ele>235</ele>
        <time>2013-03-09T15:42:54Z</time>
      </trkpt>
      <trkpt lat="45.58559" lon="0.68395">
        <ele>235</ele>
        <time>2013-03-09T15:42:55Z</time>
      </trkpt>
      <trkpt lat="45.58535" lon="0.68397">
        <ele>234</ele>
        <time>2013-03-09T15:42:59Z</time>
      </trkpt>
      <trkpt lat="45.58529" lon="0.68397">
        <ele>234</ele>
        <time>2013-03-09T15:43:00Z</time>
      </trkpt>
      <trkpt lat="45.58501" lon="0.68399">
        <ele>233</ele>
        <time>2013-03-09T15:43:04Z</time>
      </trkpt>
      <trkpt lat="45.58494" lon="0.68399">
        <ele>231</ele>
        <time>2013-03-09T15:43:05Z</time>
      </trkpt>
      <trkpt lat="45.58472" lon="0.68399">
        <ele>231</ele>
        <time>2013-03-09T15:43:08Z</time>
      </trkpt>
      <trkpt lat="45.58451" lon="0.68397">
        <ele>231</ele>
        <time>2013-03-09T15:43:11Z</time>
      </trkpt>
      <trkpt lat="45.58432" lon="0.68401">
        <ele>230</ele>
        <time>2013-03-09T15:43:14Z</time>
      </trkpt>
      <trkpt lat="45.58416" lon="0.68401">
        <ele>230</ele>
        <time>2013-03-09T15:43:17Z</time>
      </trkpt>
      <trkpt lat="45.58407" lon="0.68402">
        <ele>230</ele>
        <time>2013-03-09T15:43:19Z</time>
      </trkpt>
      <trkpt lat="45.58373" lon="0.68405">
        <ele>229</ele>
        <time>2013-03-09T15:43:28Z</time>
      </trkpt>
      <trkpt lat="45.58368" lon="0.68413">
        <ele>229</ele>
        <time>2013-03-09T15:43:31Z</time>
      </trkpt>
      <trkpt lat="45.58369" lon="0.68416">
        <ele>229</ele>
        <time>2013-03-09T15:43:32Z</time>
      </trkpt>
      <trkpt lat="45.5837" lon="0.68419">
        <ele>230</ele>
        <time>2013-03-09T15:43:33Z</time>
      </trkpt>
      <trkpt lat="45.58372" lon="0.68421">
        <ele>230</ele>
        <time>2013-03-09T15:43:34Z</time>
      </trkpt>
      <trkpt lat="45.58374" lon="0.68423">
        <ele>230</ele>
        <time>2013-03-09T15:43:35Z</time>
      </trkpt>
      <trkpt lat="45.58376" lon="0.68425">
        <ele>230</ele>
        <time>2013-03-09T15:43:36Z</time>
      </trkpt>
      <trkpt lat="45.58407" lon="0.68458">
        <ele>231</ele>
        <time>2013-03-09T15:43:50Z</time>
      </trkpt>
      <trkpt lat="45.58443" lon="0.68498">
        <ele>232</ele>
        <time>2013-03-09T15:44:06Z</time>
      </trkpt>
      <trkpt lat="45.58479" lon="0.68538">
        <ele>234</ele>
        <time>2013-03-09T15:44:21Z</time>
      </trkpt>
      <trkpt lat="45.58513" lon="0.68575">
        <ele>237</ele>
        <time>2013-03-09T15:44:36Z</time>
      </trkpt>
      <trkpt lat="45.58538" lon="0.68602">
        <ele>240</ele>
        <time>2013-03-09T15:44:50Z</time>
      </trkpt>
      <trkpt lat="45.58538" lon="0.68605">
        <ele>240</ele>
        <time>2013-03-09T15:44:51Z</time>
      </trkpt>
      <trkpt lat="45.58537" lon="0.68607">
        <ele>241</ele>
        <time>2013-03-09T15:44:52Z</time>
      </trkpt>
      <trkpt lat="45.58536" lon="0.68608">
        <ele>241</ele>
        <time>2013-03-09T15:44:53Z</time>
      </trkpt>
      <trkpt lat="45.58534" lon="0.68609">
        <ele>241</ele>
        <time>2013-03-09T15:44:54Z</time>
      </trkpt>
      <trkpt lat="45.58533" lon="0.68611">
        <ele>241</ele>
        <time>2013-03-09T15:44:55Z</time>
      </trkpt>
      <trkpt lat="45.58532" lon="0.68613">
        <ele>241</ele>
        <time>2013-03-09T15:44:56Z</time>
      </trkpt>
      <trkpt lat="45.58531" lon="0.68614">
        <ele>241</ele>
        <time>2013-03-09T15:44:57Z</time>
      </trkpt>
      <trkpt lat="45.5853" lon="0.68616">
        <ele>241</ele>
        <time>2013-03-09T15:44:58Z</time>
      </trkpt>
      <trkpt lat="45.58529" lon="0.68618">
        <ele>241</ele>
        <time>2013-03-09T15:44:59Z</time>
      </trkpt>
      <trkpt lat="45.58527" lon="0.6862">
        <ele>241</ele>
        <time>2013-03-09T15:45:00Z</time>
      </trkpt>
      <trkpt lat="45.58503" lon="0.68648">
        <ele>241</ele>
        <time>2013-03-09T15:45:16Z</time>
      </trkpt>
      <trkpt lat="45.58474" lon="0.68677">
        <ele>240</ele>
        <time>2013-03-09T15:45:31Z</time>
      </trkpt>
      <trkpt lat="45.58445" lon="0.68709">
        <ele>239</ele>
        <time>2013-03-09T15:45:45Z</time>
      </trkpt>
      <trkpt lat="45.58418" lon="0.6874">
        <ele>238</ele>
        <time>2013-03-09T15:45:53Z</time>
      </trkpt>
      <trkpt lat="45.58356" lon="0.68803">
        <ele>233</ele>
        <time>2013-03-09T15:46:06Z</time>
      </trkpt>
      <trkpt lat="45.58315" lon="0.68858">
        <ele>228</ele>
        <time>2013-03-09T15:46:15Z</time>
      </trkpt>
      <trkpt lat="45.58303" lon="0.68881">
        <ele>228</ele>
        <time>2013-03-09T15:46:18Z</time>
      </trkpt>
      <trkpt lat="45.5827" lon="0.68945">
        <ele>226</ele>
        <time>2013-03-09T15:46:26Z</time>
      </trkpt>
      <trkpt lat="45.58261" lon="0.68966">
        <ele>226</ele>
        <time>2013-03-09T15:46:31Z</time>
      </trkpt>
      <trkpt lat="45.58261" lon="0.6897">
        <ele>226</ele>
        <time>2013-03-09T15:46:32Z</time>
      </trkpt>
      <trkpt lat="45.58265" lon="0.68981">
        <ele>226</ele>
        <time>2013-03-09T15:46:36Z</time>
      </trkpt>
      <trkpt lat="45.58266" lon="0.68983">
        <ele>226</ele>
        <time>2013-03-09T15:46:37Z</time>
      </trkpt>
      <trkpt lat="45.58293" lon="0.69017">
        <ele>227</ele>
        <time>2013-03-09T15:46:51Z</time>
      </trkpt>
      <trkpt lat="45.58312" lon="0.69031">
        <ele>227</ele>
        <time>2013-03-09T15:46:59Z</time>
      </trkpt>
      <trkpt lat="45.58315" lon="0.69044">
        <ele>227</ele>
        <time>2013-03-09T15:47:03Z</time>
      </trkpt>
      <trkpt lat="45.583" lon="0.69096">
        <ele>230</ele>
        <time>2013-03-09T15:47:18Z</time>
      </trkpt>
      <trkpt lat="45.58296" lon="0.69127">
        <ele>231</ele>
        <time>2013-03-09T15:47:29Z</time>
      </trkpt>
      <trkpt lat="45.58289" lon="0.69153">
        <ele>232</ele>
        <time>2013-03-09T15:47:41Z</time>
      </trkpt>
      <trkpt lat="45.58289" lon="0.69157">
        <ele>232</ele>
        <time>2013-03-09T15:47:43Z</time>
      </trkpt>
      <trkpt lat="45.58286" lon="0.69168">
        <ele>234</ele>
        <time>2013-03-09T15:47:50Z</time>
      </trkpt>
      <trkpt lat="45.58283" lon="0.6918">
        <ele>235</ele>
        <time>2013-03-09T15:47:56Z</time>
      </trkpt>
      <trkpt lat="45.58282" lon="0.69184">
        <ele>235</ele>
        <time>2013-03-09T15:47:58Z</time>
      </trkpt>
      <trkpt lat="45.5828" lon="0.69195">
        <ele>235</ele>
        <time>2013-03-09T15:48:03Z</time>
      </trkpt>
      <trkpt lat="45.58272" lon="0.69227">
        <ele>236</ele>
        <time>2013-03-09T15:48:18Z</time>
      </trkpt>
      <trkpt lat="45.58269" lon="0.69238">
        <ele>237</ele>
        <time>2013-03-09T15:48:24Z</time>
      </trkpt>
      <trkpt lat="45.58266" lon="0.69252">
        <ele>239</ele>
        <time>2013-03-09T15:48:31Z</time>
      </trkpt>
      <trkpt lat="45.58263" lon="0.6926">
        <ele>239</ele>
        <time>2013-03-09T15:48:35Z</time>
      </trkpt>
      <trkpt lat="45.58259" lon="0.6929">
        <ele>239</ele>
        <time>2013-03-09T15:48:50Z</time>
      </trkpt>
      <trkpt lat="45.58253" lon="0.69316">
        <ele>241</ele>
        <time>2013-03-09T15:49:04Z</time>
      </trkpt>
      <trkpt lat="45.58254" lon="0.69337">
        <ele>243</ele>
        <time>2013-03-09T15:49:16Z</time>
      </trkpt>
      <trkpt lat="45.58257" lon="0.69348">
        <ele>243</ele>
        <time>2013-03-09T15:49:26Z</time>
      </trkpt>
      <trkpt lat="45.58254" lon="0.69339">
        <ele>243</ele>
        <time>2013-03-09T15:49:38Z</time>
      </trkpt>
      <trkpt lat="45.58258" lon="0.69334">
        <ele>243</ele>
        <time>2013-03-09T15:49:58Z</time>
      </trkpt>
      <trkpt lat="45.58262" lon="0.69336">
        <ele>243</ele>
        <time>2013-03-09T15:50:24Z</time>
      </trkpt>
      <trkpt lat="45.58263" lon="0.69338">
        <ele>243</ele>
        <time>2013-03-09T15:50:54Z</time>
      </trkpt>
      <trkpt lat="45.58255" lon="0.69335">
        <ele>243</ele>
        <time>2013-03-09T15:51:25Z</time>
      </trkpt>
      <trkpt lat="45.58252" lon="0.69334">
        <ele>243</ele>
        <time>2013-03-09T15:51:54Z</time>
      </trkpt>
      <trkpt lat="45.58258" lon="0.69333">
        <ele>242</ele>
        <time>2013-03-09T15:52:26Z</time>
      </trkpt>
      <trkpt lat="45.58256" lon="0.69332">
        <ele>242</ele>
        <time>2013-03-09T15:52:49Z</time>
      </trkpt>
      <trkpt lat="45.58262" lon="0.69335">
        <ele>243</ele>
        <time>2013-03-09T15:53:21Z</time>
      </trkpt>
      <trkpt lat="45.58261" lon="0.69337">
        <ele>243</ele>
        <time>2013-03-09T15:53:58Z</time>
      </trkpt>
      <trkpt lat="45.58256" lon="0.69335">
        <ele>243</ele>
        <time>2013-03-09T15:54:23Z</time>
      </trkpt>
      <trkpt lat="45.58256" lon="0.69336">
        <ele>243</ele>
        <time>2013-03-09T15:54:45Z</time>
      </trkpt>
      <trkpt lat="45.58252" lon="0.69334">
        <ele>243</ele>
        <time>2013-03-09T15:55:11Z</time>
      </trkpt>
      <trkpt lat="45.58254" lon="0.69336">
        <ele>243</ele>
        <time>2013-03-09T15:55:38Z</time>
      </trkpt>
      <trkpt lat="45.58259" lon="0.69337">
        <ele>243</ele>
        <time>2013-03-09T15:56:12Z</time>
      </trkpt>
      <trkpt lat="45.58256" lon="0.69339">
        <ele>243</ele>
        <time>2013-03-09T15:56:45Z</time>
      </trkpt>
      <trkpt lat="45.58256" lon="0.69337">
        <ele>243</ele>
        <time>2013-03-09T15:57:12Z</time>
      </trkpt>
      <trkpt lat="45.58255" lon="0.69336">
        <ele>243</ele>
        <time>2013-03-09T15:57:37Z</time>
      </trkpt>
      <trkpt lat="45.58253" lon="0.69335">
        <ele>243</ele>
        <time>2013-03-09T15:57:55Z</time>
      </trkpt>
      <trkpt lat="45.58252" lon="0.69335">
        <ele>243</ele>
        <time>2013-03-09T15:58:14Z</time>
      </trkpt>
      <trkpt lat="45.58255" lon="0.69339">
        <ele>243</ele>
        <time>2013-03-09T15:58:38Z</time>
      </trkpt>
      <trkpt lat="45.58252" lon="0.69338">
        <ele>243</ele>
        <time>2013-03-09T15:58:58Z</time>
      </trkpt>
      <trkpt lat="45.58253" lon="0.69336">
        <ele>243</ele>
        <time>2013-03-09T15:59:27Z</time>
      </trkpt>
      <trkpt lat="45.58251" lon="0.6934">
        <ele>243</ele>
        <time>2013-03-09T15:59:50Z</time>
      </trkpt>
      <trkpt lat="45.58255" lon="0.69339">
        <ele>243</ele>
        <time>2013-03-09T16:00:19Z</time>
      </trkpt>
      <trkpt lat="45.58255" lon="0.69339">
        <ele>243</ele>
        <time>2013-03-09T16:00:44Z</time>
      </trkpt>
      <trkpt lat="45.58256" lon="0.69342">
        <ele>243</ele>
        <time>2013-03-09T16:01:03Z</time>
      </trkpt>
      <trkpt lat="45.58261" lon="0.69363">
        <ele>243</ele>
        <time>2013-03-09T16:01:17Z</time>
      </trkpt>
      <trkpt lat="45.5827" lon="0.69389">
        <ele>244</ele>
        <time>2013-03-09T16:01:30Z</time>
      </trkpt>
      <trkpt lat="45.58272" lon="0.69397">
        <ele>245</ele>
        <time>2013-03-09T16:01:34Z</time>
      </trkpt>
      <trkpt lat="45.58272" lon="0.69415">
        <ele>245</ele>
        <time>2013-03-09T16:01:41Z</time>
      </trkpt>
      <trkpt lat="45.58252" lon="0.69432">
        <ele>248</ele>
        <time>2013-03-09T16:01:56Z</time>
      </trkpt>
      <trkpt lat="45.58229" lon="0.69412">
        <ele>249</ele>
        <time>2013-03-09T16:02:08Z</time>
      </trkpt>
      <trkpt lat="45.5821" lon="0.69411">
        <ele>250</ele>
        <time>2013-03-09T16:02:17Z</time>
      </trkpt>
      <trkpt lat="45.58207" lon="0.69411">
        <ele>250</ele>
        <time>2013-03-09T16:02:18Z</time>
      </trkpt>
      <trkpt lat="45.58205" lon="0.6941">
        <ele>250</ele>
        <time>2013-03-09T16:02:19Z</time>
      </trkpt>
      <trkpt lat="45.58171" lon="0.69405">
        <ele>253</ele>
        <time>2013-03-09T16:02:35Z</time>
      </trkpt>
      <trkpt lat="45.58162" lon="0.69409">
        <ele>255</ele>
        <time>2013-03-09T16:02:39Z</time>
      </trkpt>
      <trkpt lat="45.58161" lon="0.69412">
        <ele>255</ele>
        <time>2013-03-09T16:02:40Z</time>
      </trkpt>
      <trkpt lat="45.58153" lon="0.69456">
        <ele>257</ele>
        <time>2013-03-09T16:02:56Z</time>
      </trkpt>
      <trkpt lat="45.58133" lon="0.69494">
        <ele>258</ele>
        <time>2013-03-09T16:03:10Z</time>
      </trkpt>
      <trkpt lat="45.58108" lon="0.69541">
        <ele>259</ele>
        <time>2013-03-09T16:03:26Z</time>
      </trkpt>
      <trkpt lat="45.58089" lon="0.69597">
        <ele>261</ele>
        <time>2013-03-09T16:03:42Z</time>
      </trkpt>
      <trkpt lat="45.58087" lon="0.69657">
        <ele>260</ele>
        <time>2013-03-09T16:03:58Z</time>
      </trkpt>
      <trkpt lat="45.58103" lon="0.69716">
        <ele>258</ele>
        <time>2013-03-09T16:04:13Z</time>
      </trkpt>
      <trkpt lat="45.58118" lon="0.69776">
        <ele>259</ele>
        <time>2013-03-09T16:04:29Z</time>
      </trkpt>
      <trkpt lat="45.58138" lon="0.6985">
        <ele>262</ele>
        <time>2013-03-09T16:04:48Z</time>
      </trkpt>
      <trkpt lat="45.58149" lon="0.69883">
        <ele>263</ele>
        <time>2013-03-09T16:04:59Z</time>
      </trkpt>
      <trkpt lat="45.58154" lon="0.699">
        <ele>264</ele>
        <time>2013-03-09T16:05:04Z</time>
      </trkpt>
      <trkpt lat="45.58155" lon="0.69902">
        <ele>264</ele>
        <time>2013-03-09T16:05:05Z</time>
      </trkpt>
      <trkpt lat="45.5816" lon="0.69945">
        <ele>265</ele>
        <time>2013-03-09T16:05:18Z</time>
      </trkpt>
      <trkpt lat="45.5816" lon="0.69948">
        <ele>265</ele>
        <time>2013-03-09T16:05:19Z</time>
      </trkpt>
      <trkpt lat="45.5816" lon="0.69952">
        <ele>265</ele>
        <time>2013-03-09T16:05:20Z</time>
      </trkpt>
      <trkpt lat="45.58159" lon="0.69955">
        <ele>265</ele>
        <time>2013-03-09T16:05:21Z</time>
      </trkpt>
      <trkpt lat="45.5816" lon="0.69959">
        <ele>266</ele>
        <time>2013-03-09T16:05:22Z</time>
      </trkpt>
      <trkpt lat="45.58152" lon="0.70002">
        <ele>267</ele>
        <time>2013-03-09T16:05:34Z</time>
      </trkpt>
      <trkpt lat="45.58132" lon="0.70047">
        <ele>267</ele>
        <time>2013-03-09T16:05:48Z</time>
      </trkpt>
      <trkpt lat="45.58113" lon="0.70088">
        <ele>268</ele>
        <time>2013-03-09T16:06:01Z</time>
      </trkpt>
      <trkpt lat="45.58101" lon="0.7011">
        <ele>268</ele>
        <time>2013-03-09T16:06:12Z</time>
      </trkpt>
      <trkpt lat="45.58088" lon="0.70125">
        <ele>268</ele>
        <time>2013-03-09T16:06:23Z</time>
      </trkpt>
      <trkpt lat="45.58064" lon="0.70154">
        <ele>271</ele>
        <time>2013-03-09T16:06:35Z</time>
      </trkpt>
      <trkpt lat="45.5804" lon="0.70196">
        <ele>271</ele>
        <time>2013-03-09T16:06:48Z</time>
      </trkpt>
      <trkpt lat="45.58022" lon="0.70254">
        <ele>271</ele>
        <time>2013-03-09T16:07:05Z</time>
      </trkpt>
      <trkpt lat="45.58006" lon="0.70293">
        <ele>270</ele>
        <time>2013-03-09T16:07:19Z</time>
      </trkpt>
      <trkpt lat="45.57993" lon="0.70323">
        <ele>273</ele>
        <time>2013-03-09T16:07:30Z</time>
      </trkpt>
      <trkpt lat="45.57994" lon="0.70338">
        <ele>271</ele>
        <time>2013-03-09T16:07:35Z</time>
      </trkpt>
      <trkpt lat="45.58009" lon="0.70367">
        <ele>268</ele>
        <time>2013-03-09T16:07:45Z</time>
      </trkpt>
      <trkpt lat="45.58024" lon="0.704">
        <ele>267</ele>
        <time>2013-03-09T16:07:55Z</time>
      </trkpt>
      <trkpt lat="45.58044" lon="0.70437">
        <ele>265</ele>
        <time>2013-03-09T16:08:09Z</time>
      </trkpt>
      <trkpt lat="45.58066" lon="0.70473">
        <ele>265</ele>
        <time>2013-03-09T16:08:22Z</time>
      </trkpt>
      <trkpt lat="45.58097" lon="0.70517">
        <ele>266</ele>
        <time>2013-03-09T16:08:39Z</time>
      </trkpt>
      <trkpt lat="45.58105" lon="0.70529">
        <ele>267</ele>
        <time>2013-03-09T16:08:44Z</time>
      </trkpt>
      <trkpt lat="45.58114" lon="0.70542">
        <ele>267</ele>
        <time>2013-03-09T16:08:50Z</time>
      </trkpt>
      <trkpt lat="45.5814" lon="0.7057">
        <ele>268</ele>
        <time>2013-03-09T16:09:05Z</time>
      </trkpt>
      <trkpt lat="45.58164" lon="0.70595">
        <ele>271</ele>
        <time>2013-03-09T16:09:21Z</time>
      </trkpt>
      <trkpt lat="45.58168" lon="0.70597">
        <ele>272</ele>
        <time>2013-03-09T16:09:23Z</time>
      </trkpt>
      <trkpt lat="45.58183" lon="0.70611">
        <ele>274</ele>
        <time>2013-03-09T16:09:33Z</time>
      </trkpt>
      <trkpt lat="45.58204" lon="0.70632">
        <ele>275</ele>
        <time>2013-03-09T16:09:46Z</time>
      </trkpt>
      <trkpt lat="45.58217" lon="0.70643">
        <ele>275</ele>
        <time>2013-03-09T16:09:53Z</time>
      </trkpt>
      <trkpt lat="45.58235" lon="0.70658">
        <ele>277</ele>
        <time>2013-03-09T16:10:05Z</time>
      </trkpt>
      <trkpt lat="45.58241" lon="0.70664">
        <ele>278</ele>
        <time>2013-03-09T16:10:10Z</time>
      </trkpt>
      <trkpt lat="45.5826" lon="0.70683">
        <ele>280</ele>
        <time>2013-03-09T16:10:21Z</time>
      </trkpt>
      <trkpt lat="45.5828" lon="0.70705">
        <ele>280</ele>
        <time>2013-03-09T16:10:35Z</time>
      </trkpt>
      <trkpt lat="45.58301" lon="0.70722">
        <ele>280</ele>
        <time>2013-03-09T16:10:49Z</time>
      </trkpt>
      <trkpt lat="45.58339" lon="0.70752">
        <ele>281</ele>
        <time>2013-03-09T16:11:07Z</time>
      </trkpt>
      <trkpt lat="45.58344" lon="0.70757">
        <ele>282</ele>
        <time>2013-03-09T16:11:09Z</time>
      </trkpt>
      <trkpt lat="45.5836" lon="0.70762">
        <ele>282</ele>
        <time>2013-03-09T16:11:19Z</time>
      </trkpt>
      <trkpt lat="45.58361" lon="0.70762">
        <ele>282</ele>
        <time>2013-03-09T16:11:20Z</time>
      </trkpt>
      <trkpt lat="45.58368" lon="0.7076">
        <ele>282</ele>
        <time>2013-03-09T16:11:31Z</time>
      </trkpt>
      <trkpt lat="45.58369" lon="0.70763">
        <ele>282</ele>
        <time>2013-03-09T16:11:44Z</time>
      </trkpt>
      <trkpt lat="45.5837" lon="0.70765">
        <ele>282</ele>
        <time>2013-03-09T16:12:05Z</time>
      </trkpt>
      <trkpt lat="45.58368" lon="0.70764">
        <ele>282</ele>
        <time>2013-03-09T16:12:45Z</time>
      </trkpt>
      <trkpt lat="45.58369" lon="0.70764">
        <ele>282</ele>
        <time>2013-03-09T16:13:33Z</time>
      </trkpt>
      <trkpt lat="45.5837" lon="0.70765">
        <ele>282</ele>
        <time>2013-03-09T16:14:14Z</time>
      </trkpt>
      <trkpt lat="45.58372" lon="0.70766">
        <ele>282</ele>
        <time>2013-03-09T16:15:03Z</time>
      </trkpt>
      <trkpt lat="45.58371" lon="0.70762">
        <ele>282</ele>
        <time>2013-03-09T16:15:48Z</time>
      </trkpt>
      <trkpt lat="45.58376" lon="0.70762">
        <ele>282</ele>
        <time>2013-03-09T16:16:37Z</time>
      </trkpt>
      <trkpt lat="45.58376" lon="0.70762">
        <ele>282</ele>
        <time>2013-03-09T16:16:39Z</time>
      </trkpt>
      <trkpt lat="45.58372" lon="0.70762">
        <ele>282</ele>
        <time>2013-03-09T16:16:57Z</time>
      </trkpt>
      <trkpt lat="45.58369" lon="0.70763">
        <ele>282</ele>
        <time>2013-03-09T16:17:22Z</time>
      </trkpt>
      <trkpt lat="45.58371" lon="0.70762">
        <ele>282</ele>
        <time>2013-03-09T16:17:46Z</time>
      </trkpt>
      <trkpt lat="45.58368" lon="0.70762">
        <ele>282</ele>
        <time>2013-03-09T16:18:20Z</time>
      </trkpt>
      <trkpt lat="45.58371" lon="0.70762">
        <ele>282</ele>
        <time>2013-03-09T16:18:34Z</time>
      </trkpt>
      <trkpt lat="45.58378" lon="0.70768">
        <ele>282</ele>
        <time>2013-03-09T16:18:40Z</time>
      </trkpt>
      <trkpt lat="45.58384" lon="0.7077">
        <ele>283</ele>
        <time>2013-03-09T16:18:44Z</time>
      </trkpt>
      <trkpt lat="45.58413" lon="0.70777">
        <ele>283</ele>
        <time>2013-03-09T16:18:58Z</time>
      </trkpt>
      <trkpt lat="45.58444" lon="0.70784">
        <ele>284</ele>
        <time>2013-03-09T16:19:13Z</time>
      </trkpt>
      <trkpt lat="45.58479" lon="0.70786">
        <ele>285</ele>
        <time>2013-03-09T16:19:30Z</time>
      </trkpt>
      <trkpt lat="45.58509" lon="0.70783">
        <ele>285</ele>
        <time>2013-03-09T16:19:44Z</time>
      </trkpt>
      <trkpt lat="45.58548" lon="0.7078">
        <ele>285</ele>
        <time>2013-03-09T16:19:59Z</time>
      </trkpt>
      <trkpt lat="45.58579" lon="0.70785">
        <ele>285</ele>
        <time>2013-03-09T16:20:11Z</time>
      </trkpt>
      <trkpt lat="45.58616" lon="0.70787">
        <ele>285</ele>
        <time>2013-03-09T16:20:23Z</time>
      </trkpt>
      <trkpt lat="45.58658" lon="0.70796">
        <ele>284</ele>
        <time>2013-03-09T16:20:36Z</time>
      </trkpt>
      <trkpt lat="45.58705" lon="0.70807">
        <ele>284</ele>
        <time>2013-03-09T16:20:51Z</time>
      </trkpt>
      <trkpt lat="45.58749" lon="0.70819">
        <ele>284</ele>
        <time>2013-03-09T16:21:07Z</time>
      </trkpt>
      <trkpt lat="45.58791" lon="0.70841">
        <ele>286</ele>
        <time>2013-03-09T16:21:24Z</time>
      </trkpt>
      <trkpt lat="45.58832" lon="0.70856">
        <ele>287</ele>
        <time>2013-03-09T16:21:41Z</time>
      </trkpt>
      <trkpt lat="45.58866" lon="0.70857">
        <ele>289</ele>
        <time>2013-03-09T16:21:55Z</time>
      </trkpt>
      <trkpt lat="45.58903" lon="0.70856">
        <ele>291</ele>
        <time>2013-03-09T16:22:12Z</time>
      </trkpt>
      <trkpt lat="45.58904" lon="0.70857">
        <ele>291</ele>
        <time>2013-03-09T16:22:13Z</time>
      </trkpt>
      <trkpt lat="45.58904" lon="0.70859">
        <ele>291</ele>
        <time>2013-03-09T16:22:14Z</time>
      </trkpt>
      <trkpt lat="45.58903" lon="0.7086">
        <ele>291</ele>
        <time>2013-03-09T16:22:15Z</time>
      </trkpt>
      <trkpt lat="45.58902" lon="0.70857">
        <ele>291</ele>
        <time>2013-03-09T16:22:25Z</time>
      </trkpt>
      <trkpt lat="45.58903" lon="0.70859">
        <ele>291</ele>
        <time>2013-03-09T16:22:44Z</time>
      </trkpt>
      <trkpt lat="45.58905" lon="0.70858">
        <ele>291</ele>
        <time>2013-03-09T16:23:05Z</time>
      </trkpt>
      <trkpt lat="45.58903" lon="0.70864">
        <ele>291</ele>
        <time>2013-03-09T16:23:23Z</time>
      </trkpt>
      <trkpt lat="45.58893" lon="0.70878">
        <ele>290</ele>
        <time>2013-03-09T16:23:30Z</time>
      </trkpt>
      <trkpt lat="45.5887" lon="0.70912">
        <ele>289</ele>
        <time>2013-03-09T16:23:38Z</time>
      </trkpt>
      <trkpt lat="45.58852" lon="0.70948">
        <ele>287</ele>
        <time>2013-03-09T16:23:44Z</time>
      </trkpt>
      <trkpt lat="45.58842" lon="0.70966">
        <ele>286</ele>
        <time>2013-03-09T16:23:47Z</time>
      </trkpt>
      <trkpt lat="45.58819" lon="0.71004">
        <ele>282</ele>
        <time>2013-03-09T16:23:52Z</time>
      </trkpt>
      <trkpt lat="45.5881" lon="0.71022">
        <ele>281</ele>
        <time>2013-03-09T16:23:54Z</time>
      </trkpt>
      <trkpt lat="45.58806" lon="0.71031">
        <ele>281</ele>
        <time>2013-03-09T16:23:55Z</time>
      </trkpt>
      <trkpt lat="45.58777" lon="0.71147">
        <ele>276</ele>
        <time>2013-03-09T16:24:09Z</time>
      </trkpt>
      <trkpt lat="45.58768" lon="0.7123">
        <ele>275</ele>
        <time>2013-03-09T16:24:23Z</time>
      </trkpt>
      <trkpt lat="45.5876" lon="0.71272">
        <ele>274</ele>
        <time>2013-03-09T16:24:32Z</time>
      </trkpt>
      <trkpt lat="45.58759" lon="0.7129">
        <ele>274</ele>
        <time>2013-03-09T16:24:35Z</time>
      </trkpt>
      <trkpt lat="45.58755" lon="0.71318">
        <ele>273</ele>
        <time>2013-03-09T16:24:39Z</time>
      </trkpt>
      <trkpt lat="45.58752" lon="0.71347">
        <ele>271</ele>
        <time>2013-03-09T16:24:42Z</time>
      </trkpt>
      <trkpt lat="45.58751" lon="0.71365">
        <ele>270</ele>
        <time>2013-03-09T16:24:44Z</time>
      </trkpt>
      <trkpt lat="45.58747" lon="0.71393">
        <ele>268</ele>
        <time>2013-03-09T16:24:52Z</time>
      </trkpt>
      <trkpt lat="45.58765" lon="0.71408">
        <ele>269</ele>
        <time>2013-03-09T16:25:03Z</time>
      </trkpt>
      <trkpt lat="45.58788" lon="0.71441">
        <ele>266</ele>
        <time>2013-03-09T16:25:17Z</time>
      </trkpt>
      <trkpt lat="45.58796" lon="0.71444">
        <ele>266</ele>
        <time>2013-03-09T16:25:22Z</time>
      </trkpt>
      <trkpt lat="45.58814" lon="0.71452">
        <ele>266</ele>
        <time>2013-03-09T16:25:32Z</time>
      </trkpt>
      <trkpt lat="45.58826" lon="0.71455">
        <ele>266</ele>
        <time>2013-03-09T16:25:42Z</time>
      </trkpt>
      <trkpt lat="45.58828" lon="0.71443">
        <ele>267</ele>
        <time>2013-03-09T16:26:08Z</time>
      </trkpt>
      <trkpt lat="45.58826" lon="0.71449">
        <ele>266</ele>
        <time>2013-03-09T16:26:46Z</time>
      </trkpt>
      <trkpt lat="45.5883" lon="0.71453">
        <ele>266</ele>
        <time>2013-03-09T16:27:33Z</time>
      </trkpt>
      <trkpt lat="45.58829" lon="0.71452">
        <ele>266</ele>
        <time>2013-03-09T16:28:14Z</time>
      </trkpt>
      <trkpt lat="45.5883" lon="0.71449">
        <ele>266</ele>
        <time>2013-03-09T16:28:59Z</time>
      </trkpt>
      <trkpt lat="45.58831" lon="0.71449">
        <ele>266</ele>
        <time>2013-03-09T16:29:38Z</time>
      </trkpt>
      <trkpt lat="45.58834" lon="0.71453">
        <ele>267</ele>
        <time>2013-03-09T16:30:18Z</time>
      </trkpt>
      <trkpt lat="45.5883" lon="0.7145">
        <ele>266</ele>
        <time>2013-03-09T16:31:09Z</time>
      </trkpt>
      <trkpt lat="45.5883" lon="0.71443">
        <ele>267</ele>
        <time>2013-03-09T16:31:40Z</time>
      </trkpt>
      <trkpt lat="45.58831" lon="0.71442">
        <ele>267</ele>
        <time>2013-03-09T16:32:23Z</time>
      </trkpt>
      <trkpt lat="45.58833" lon="0.71445">
        <ele>267</ele>
        <time>2013-03-09T16:33:04Z</time>
      </trkpt>
      <trkpt lat="45.58833" lon="0.7145">
        <ele>266</ele>
        <time>2013-03-09T16:33:53Z</time>
      </trkpt>
      <trkpt lat="45.58832" lon="0.71451">
        <ele>266</ele>
        <time>2013-03-09T16:34:28Z</time>
      </trkpt>
      <trkpt lat="45.5883" lon="0.71448">
        <ele>266</ele>
        <time>2013-03-09T16:35:03Z</time>
      </trkpt>
      <trkpt lat="45.58828" lon="0.71444">
        <ele>267</ele>
        <time>2013-03-09T16:35:42Z</time>
      </trkpt>
      <trkpt lat="45.58829" lon="0.71442">
        <ele>267</ele>
        <time>2013-03-09T16:36:18Z</time>
      </trkpt>
      <trkpt lat="45.58832" lon="0.71447">
        <ele>267</ele>
        <time>2013-03-09T16:36:45Z</time>
      </trkpt>
      <trkpt lat="45.58831" lon="0.71447">
        <ele>267</ele>
        <time>2013-03-09T16:37:17Z</time>
      </trkpt>
      <trkpt lat="45.58828" lon="0.71446">
        <ele>267</ele>
        <time>2013-03-09T16:37:51Z</time>
      </trkpt>
      <trkpt lat="45.5883" lon="0.71447">
        <ele>267</ele>
        <time>2013-03-09T16:38:24Z</time>
      </trkpt>
      <trkpt lat="45.5883" lon="0.71446">
        <ele>267</ele>
        <time>2013-03-09T16:38:51Z</time>
      </trkpt>
      <trkpt lat="45.58835" lon="0.7145">
        <ele>267</ele>
        <time>2013-03-09T16:39:31Z</time>
      </trkpt>
      <trkpt lat="45.58829" lon="0.71449">
        <ele>266</ele>
        <time>2013-03-09T16:40:01Z</time>
      </trkpt>
      <trkpt lat="45.58832" lon="0.71444">
        <ele>267</ele>
        <time>2013-03-09T16:40:43Z</time>
      </trkpt>
      <trkpt lat="45.58831" lon="0.71444">
        <ele>267</ele>
        <time>2013-03-09T16:41:13Z</time>
      </trkpt>
      <trkpt lat="45.58829" lon="0.7145">
        <ele>266</ele>
        <time>2013-03-09T16:41:48Z</time>
      </trkpt>
      <trkpt lat="45.58822" lon="0.71436">
        <ele>267</ele>
        <time>2013-03-09T16:42:26Z</time>
      </trkpt>
      <trkpt lat="45.58828" lon="0.71441">
        <ele>267</ele>
        <time>2013-03-09T16:42:54Z</time>
      </trkpt>
      <trkpt lat="45.58829" lon="0.71447">
        <ele>267</ele>
        <time>2013-03-09T16:43:36Z</time>
      </trkpt>
      <trkpt lat="45.58831" lon="0.71448">
        <ele>266</ele>
        <time>2013-03-09T16:44:09Z</time>
      </trkpt>
      <trkpt lat="45.58834" lon="0.71445">
        <ele>267</ele>
        <time>2013-03-09T16:44:41Z</time>
      </trkpt>
      <trkpt lat="45.58834" lon="0.71448">
        <ele>267</ele>
        <time>2013-03-09T16:45:10Z</time>
      </trkpt>
      <trkpt lat="45.58833" lon="0.71445">
        <ele>267</ele>
        <time>2013-03-09T16:45:45Z</time>
      </trkpt>
      <trkpt lat="45.5884" lon="0.71447">
        <ele>267</ele>
        <time>2013-03-09T16:46:24Z</time>
      </trkpt>
      <trkpt lat="45.58834" lon="0.71446">
        <ele>267</ele>
        <time>2013-03-09T16:46:53Z</time>
      </trkpt>
      <trkpt lat="45.58833" lon="0.71447">
        <ele>267</ele>
        <time>2013-03-09T16:47:07Z</time>
      </trkpt>
      <trkpt lat="45.58833" lon="0.71451">
        <ele>267</ele>
        <time>2013-03-09T16:47:43Z</time>
      </trkpt>
      <trkpt lat="45.58833" lon="0.71455">
        <ele>266</ele>
        <time>2013-03-09T16:48:05Z</time>
      </trkpt>
      <trkpt lat="45.58832" lon="0.71456">
        <ele>266</ele>
        <time>2013-03-09T16:48:30Z</time>
      </trkpt>
      <trkpt lat="45.58832" lon="0.71454">
        <ele>266</ele>
        <time>2013-03-09T16:48:48Z</time>
      </trkpt>
      <trkpt lat="45.58842" lon="0.71449">
        <ele>267</ele>
        <time>2013-03-09T16:48:56Z</time>
      </trkpt>
      <trkpt lat="45.58845" lon="0.71445">
        <ele>267</ele>
        <time>2013-03-09T16:48:59Z</time>
      </trkpt>
      <trkpt lat="45.58851" lon="0.71435">
        <ele>267</ele>
        <time>2013-03-09T16:49:05Z</time>
      </trkpt>
      <trkpt lat="45.58868" lon="0.71413">
        <ele>269</ele>
        <time>2013-03-09T16:49:17Z</time>
      </trkpt>
      <trkpt lat="45.58885" lon="0.71384">
        <ele>269</ele>
        <time>2013-03-09T16:49:30Z</time>
      </trkpt>
      <trkpt lat="45.589" lon="0.71359">
        <ele>270</ele>
        <time>2013-03-09T16:49:41Z</time>
      </trkpt>
      <trkpt lat="45.58911" lon="0.71335">
        <ele>271</ele>
        <time>2013-03-09T16:49:51Z</time>
      </trkpt>
      <trkpt lat="45.58916" lon="0.71323">
        <ele>271</ele>
        <time>2013-03-09T16:49:55Z</time>
      </trkpt>
      <trkpt lat="45.58926" lon="0.71305">
        <ele>273</ele>
        <time>2013-03-09T16:50:03Z</time>
      </trkpt>
      <trkpt lat="45.5893" lon="0.71296">
        <ele>273</ele>
        <time>2013-03-09T16:50:15Z</time>
      </trkpt>
      <trkpt lat="45.58932" lon="0.71291">
        <ele>274</ele>
        <time>2013-03-09T16:50:27Z</time>
      </trkpt>
      <trkpt lat="45.5893" lon="0.71286">
        <ele>274</ele>
        <time>2013-03-09T16:50:42Z</time>
      </trkpt>
      <trkpt lat="45.58929" lon="0.71286">
        <ele>274</ele>
        <time>2013-03-09T16:50:54Z</time>
      </trkpt>
      <trkpt lat="45.58925" lon="0.71285">
        <ele>274</ele>
        <time>2013-03-09T16:51:18Z</time>
      </trkpt>
      <trkpt lat="45.58926" lon="0.71287">
        <ele>274</ele>
        <time>2013-03-09T16:51:44Z</time>
      </trkpt>
      <trkpt lat="45.58928" lon="0.71277">
        <ele>274</ele>
        <time>2013-03-09T16:52:07Z</time>
      </trkpt>
      <trkpt lat="45.58929" lon="0.71268">
        <ele>274</ele>
        <time>2013-03-09T16:52:15Z</time>
      </trkpt>
      <trkpt lat="45.58935" lon="0.71255">
        <ele>274</ele>
        <time>2013-03-09T16:52:30Z</time>
      </trkpt>
      <trkpt lat="45.58946" lon="0.71252">
        <ele>274</ele>
        <time>2013-03-09T16:52:45Z</time>
      </trkpt>
      <trkpt lat="45.58948" lon="0.7125">
        <ele>275</ele>
        <time>2013-03-09T16:52:56Z</time>
      </trkpt>
      <trkpt lat="45.58948" lon="0.71251">
        <ele>274</ele>
        <time>2013-03-09T16:53:26Z</time>
      </trkpt>
      <trkpt lat="45.58951" lon="0.71254">
        <ele>274</ele>
        <time>2013-03-09T16:53:37Z</time>
      </trkpt>
      <trkpt lat="45.5895" lon="0.71252">
        <ele>274</ele>
        <time>2013-03-09T16:53:52Z</time>
      </trkpt>
      <trkpt lat="45.58948" lon="0.71253">
        <ele>274</ele>
        <time>2013-03-09T16:54:14Z</time>
      </trkpt>
      <trkpt lat="45.58951" lon="0.7125">
        <ele>275</ele>
        <time>2013-03-09T16:54:20Z</time>
      </trkpt>
      <trkpt lat="45.58956" lon="0.71241">
        <ele>275</ele>
        <time>2013-03-09T16:54:26Z</time>
      </trkpt>
      <trkpt lat="45.58965" lon="0.71227">
        <ele>276</ele>
        <time>2013-03-09T16:54:39Z</time>
      </trkpt>
      <trkpt lat="45.58973" lon="0.71209">
        <ele>276</ele>
        <time>2013-03-09T16:54:52Z</time>
      </trkpt>
      <trkpt lat="45.58977" lon="0.71204">
        <ele>276</ele>
        <time>2013-03-09T16:54:55Z</time>
      </trkpt>
      <trkpt lat="45.58992" lon="0.71179">
        <ele>277</ele>
        <time>2013-03-09T16:55:10Z</time>
      </trkpt>
      <trkpt lat="45.58993" lon="0.71178">
        <ele>277</ele>
        <time>2013-03-09T16:55:11Z</time>
      </trkpt>
      <trkpt lat="45.59001" lon="0.71166">
        <ele>277</ele>
        <time>2013-03-09T16:55:19Z</time>
      </trkpt>
      <trkpt lat="45.59011" lon="0.71154">
        <ele>277</ele>
        <time>2013-03-09T16:55:28Z</time>
      </trkpt>
      <trkpt lat="45.59021" lon="0.71138">
        <ele>277</ele>
        <time>2013-03-09T16:55:36Z</time>
      </trkpt>
      <trkpt lat="45.5904" lon="0.71112">
        <ele>278</ele>
        <time>2013-03-09T16:55:49Z</time>
      </trkpt>
      <trkpt lat="45.59058" lon="0.71086">
        <ele>278</ele>
        <time>2013-03-09T16:56:02Z</time>
      </trkpt>
      <trkpt lat="45.59059" lon="0.71083">
        <ele>278</ele>
        <time>2013-03-09T16:56:03Z</time>
      </trkpt>
      <trkpt lat="45.59061" lon="0.71081">
        <ele>279</ele>
        <time>2013-03-09T16:56:04Z</time>
      </trkpt>
      <trkpt lat="45.59074" lon="0.71059">
        <ele>279</ele>
        <time>2013-03-09T16:56:11Z</time>
      </trkpt>
      <trkpt lat="45.59076" lon="0.71057">
        <ele>279</ele>
        <time>2013-03-09T16:56:12Z</time>
      </trkpt>
      <trkpt lat="45.59077" lon="0.71055">
        <ele>279</ele>
        <time>2013-03-09T16:56:13Z</time>
      </trkpt>
      <trkpt lat="45.59091" lon="0.71026">
        <ele>278</ele>
        <time>2013-03-09T16:56:24Z</time>
      </trkpt>
      <trkpt lat="45.59114" lon="0.70983">
        <ele>280</ele>
        <time>2013-03-09T16:56:38Z</time>
      </trkpt>
      <trkpt lat="45.59118" lon="0.70975">
        <ele>280</ele>
        <time>2013-03-09T16:56:41Z</time>
      </trkpt>
      <trkpt lat="45.5912" lon="0.70974">
        <ele>280</ele>
        <time>2013-03-09T16:56:42Z</time>
      </trkpt>
      <trkpt lat="45.59122" lon="0.70973">
        <ele>280</ele>
        <time>2013-03-09T16:56:43Z</time>
      </trkpt>
      <trkpt lat="45.59144" lon="0.70957">
        <ele>281</ele>
        <time>2013-03-09T16:56:55Z</time>
      </trkpt>
      <trkpt lat="45.59149" lon="0.7095">
        <ele>281</ele>
        <time>2013-03-09T16:56:58Z</time>
      </trkpt>
      <trkpt lat="45.59149" lon="0.70947">
        <ele>281</ele>
        <time>2013-03-09T16:56:59Z</time>
      </trkpt>
      <trkpt lat="45.5915" lon="0.70945">
        <ele>281</ele>
        <time>2013-03-09T16:57:00Z</time>
      </trkpt>
      <trkpt lat="45.59149" lon="0.70942">
        <ele>281</ele>
        <time>2013-03-09T16:57:01Z</time>
      </trkpt>
      <trkpt lat="45.59149" lon="0.70939">
        <ele>281</ele>
        <time>2013-03-09T16:57:02Z</time>
      </trkpt>
      <trkpt lat="45.59132" lon="0.70916">
        <ele>285</ele>
        <time>2013-03-09T16:57:15Z</time>
      </trkpt>
      <trkpt lat="45.59108" lon="0.7089">
        <ele>285</ele>
        <time>2013-03-09T16:57:30Z</time>
      </trkpt>
      <trkpt lat="45.59086" lon="0.70867">
        <ele>286</ele>
        <time>2013-03-09T16:57:43Z</time>
      </trkpt>
      <trkpt lat="45.59065" lon="0.70841">
        <ele>288</ele>
        <time>2013-03-09T16:57:58Z</time>
      </trkpt>
      <trkpt lat="45.59053" lon="0.70829">
        <ele>288</ele>
        <time>2013-03-09T16:58:08Z</time>
      </trkpt>
      <trkpt lat="45.59031" lon="0.70797">
        <ele>288</ele>
        <time>2013-03-09T16:58:24Z</time>
      </trkpt>
      <trkpt lat="45.59021" lon="0.70743">
        <ele>287</ele>
        <time>2013-03-09T16:58:38Z</time>
      </trkpt>
      <trkpt lat="45.59016" lon="0.70679">
        <ele>286</ele>
        <time>2013-03-09T16:58:52Z</time>
      </trkpt>
      <trkpt lat="45.59012" lon="0.70645">
        <ele>284</ele>
        <time>2013-03-09T16:58:58Z</time>
      </trkpt>
      <trkpt lat="45.59005" lon="0.70557">
        <ele>280</ele>
        <time>2013-03-09T16:59:13Z</time>
      </trkpt>
      <trkpt lat="45.59004" lon="0.70551">
        <ele>280</ele>
        <time>2013-03-09T16:59:14Z</time>
      </trkpt>
      <trkpt lat="45.59003" lon="0.70545">
        <ele>280</ele>
        <time>2013-03-09T16:59:15Z</time>
      </trkpt>
      <trkpt lat="45.59002" lon="0.70539">
        <ele>279</ele>
        <time>2013-03-09T16:59:16Z</time>
      </trkpt>
      <trkpt lat="45.58993" lon="0.70455">
        <ele>276</ele>
        <time>2013-03-09T16:59:31Z</time>
      </trkpt>
      <trkpt lat="45.58986" lon="0.70408">
        <ele>276</ele>
        <time>2013-03-09T16:59:39Z</time>
      </trkpt>
      <trkpt lat="45.58964" lon="0.70303">
        <ele>274</ele>
        <time>2013-03-09T16:59:55Z</time>
      </trkpt>
      <trkpt lat="45.58953" lon="0.70183">
        <ele>272</ele>
        <time>2013-03-09T17:00:10Z</time>
      </trkpt>
      <trkpt lat="45.58953" lon="0.70142">
        <ele>271</ele>
        <time>2013-03-09T17:00:16Z</time>
      </trkpt>
      <trkpt lat="45.58954" lon="0.70071">
        <ele>272</ele>
        <time>2013-03-09T17:00:31Z</time>
      </trkpt>
      <trkpt lat="45.58952" lon="0.69999">
        <ele>274</ele>
        <time>2013-03-09T17:00:45Z</time>
      </trkpt>
      <trkpt lat="45.58961" lon="0.6993">
        <ele>274</ele>
        <time>2013-03-09T17:00:57Z</time>
      </trkpt>
      <trkpt lat="45.58971" lon="0.69858">
        <ele>275</ele>
        <time>2013-03-09T17:01:13Z</time>
      </trkpt>
      <trkpt lat="45.58986" lon="0.69787">
        <ele>272</ele>
        <time>2013-03-09T17:01:24Z</time>
      </trkpt>
      <trkpt lat="45.58997" lon="0.6973">
        <ele>269</ele>
        <time>2013-03-09T17:01:30Z</time>
      </trkpt>
      <trkpt lat="45.58997" lon="0.6972">
        <ele>268</ele>
        <time>2013-03-09T17:01:31Z</time>
      </trkpt>
      <trkpt lat="45.58997" lon="0.69709">
        <ele>268</ele>
        <time>2013-03-09T17:01:32Z</time>
      </trkpt>
      <trkpt lat="45.58993" lon="0.69649">
        <ele>263</ele>
        <time>2013-03-09T17:01:38Z</time>
      </trkpt>
      <trkpt lat="45.58987" lon="0.6958">
        <ele>258</ele>
        <time>2013-03-09T17:01:45Z</time>
      </trkpt>
      <trkpt lat="45.58984" lon="0.6957">
        <ele>258</ele>
        <time>2013-03-09T17:01:46Z</time>
      </trkpt>
      <trkpt lat="45.5898" lon="0.69561">
        <ele>258</ele>
        <time>2013-03-09T17:01:47Z</time>
      </trkpt>
      <trkpt lat="45.58976" lon="0.69553">
        <ele>258</ele>
        <time>2013-03-09T17:01:48Z</time>
      </trkpt>
      <trkpt lat="45.58971" lon="0.69546">
        <ele>258</ele>
        <time>2013-03-09T17:01:49Z</time>
      </trkpt>
      <trkpt lat="45.58966" lon="0.69539">
        <ele>257</ele>
        <time>2013-03-09T17:01:50Z</time>
      </trkpt>
      <trkpt lat="45.58938" lon="0.6949">
        <ele>255</ele>
        <time>2013-03-09T17:01:56Z</time>
      </trkpt>
      <trkpt lat="45.58936" lon="0.6948">
        <ele>255</ele>
        <time>2013-03-09T17:01:57Z</time>
      </trkpt>
      <trkpt lat="45.58933" lon="0.6947">
        <ele>255</ele>
        <time>2013-03-09T17:01:58Z</time>
      </trkpt>
      <trkpt lat="45.58928" lon="0.69356">
        <ele>250</ele>
        <time>2013-03-09T17:02:11Z</time>
      </trkpt>
      <trkpt lat="45.58919" lon="0.69268">
        <ele>248</ele>
        <time>2013-03-09T17:02:26Z</time>
      </trkpt>
      <trkpt lat="45.58902" lon="0.69181">
        <ele>247</ele>
        <time>2013-03-09T17:02:43Z</time>
      </trkpt>
      <trkpt lat="45.58881" lon="0.69119">
        <ele>249</ele>
        <time>2013-03-09T17:02:54Z</time>
      </trkpt>
      <trkpt lat="45.58879" lon="0.69114">
        <ele>249</ele>
        <time>2013-03-09T17:02:55Z</time>
      </trkpt>
      <trkpt lat="45.58868" lon="0.6904">
        <ele>249</ele>
        <time>2013-03-09T17:03:09Z</time>
      </trkpt>
      <trkpt lat="45.58885" lon="0.68977">
        <ele>247</ele>
        <time>2013-03-09T17:03:21Z</time>
      </trkpt>
      <trkpt lat="45.58901" lon="0.68928">
        <ele>246</ele>
        <time>2013-03-09T17:03:30Z</time>
      </trkpt>
      <trkpt lat="45.58912" lon="0.68892">
        <ele>244</ele>
        <time>2013-03-09T17:03:36Z</time>
      </trkpt>
      <trkpt lat="45.5892" lon="0.68869">
        <ele>243</ele>
        <time>2013-03-09T17:03:40Z</time>
      </trkpt>
      <trkpt lat="45.58931" lon="0.68831">
        <ele>243</ele>
        <time>2013-03-09T17:03:46Z</time>
      </trkpt>
      <trkpt lat="45.58934" lon="0.68819">
        <ele>242</ele>
        <time>2013-03-09T17:03:48Z</time>
      </trkpt>
      <trkpt lat="45.58936" lon="0.68807">
        <ele>242</ele>
        <time>2013-03-09T17:03:50Z</time>
      </trkpt>
      <trkpt lat="45.58938" lon="0.68802">
        <ele>242</ele>
        <time>2013-03-09T17:03:51Z</time>
      </trkpt>
      <trkpt lat="45.58938" lon="0.68796">
        <ele>242</ele>
        <time>2013-03-09T17:03:52Z</time>
      </trkpt>
      <trkpt lat="45.58939" lon="0.6879">
        <ele>242</ele>
        <time>2013-03-09T17:03:53Z</time>
      </trkpt>
      <trkpt lat="45.58939" lon="0.68785">
        <ele>242</ele>
        <time>2013-03-09T17:03:54Z</time>
      </trkpt>
      <trkpt lat="45.58943" lon="0.68762">
        <ele>242</ele>
        <time>2013-03-09T17:03:58Z</time>
      </trkpt>
      <trkpt lat="45.5895" lon="0.68668">
        <ele>240</ele>
        <time>2013-03-09T17:04:14Z</time>
      </trkpt>
      <trkpt lat="45.58959" lon="0.68576">
        <ele>241</ele>
        <time>2013-03-09T17:04:32Z</time>
      </trkpt>
      <trkpt lat="45.58966" lon="0.685">
        <ele>242</ele>
        <time>2013-03-09T17:04:48Z</time>
      </trkpt>
      <trkpt lat="45.58972" lon="0.68427">
        <ele>242</ele>
        <time>2013-03-09T17:05:04Z</time>
      </trkpt>
      <trkpt lat="45.58977" lon="0.68362">
        <ele>242</ele>
        <time>2013-03-09T17:05:19Z</time>
      </trkpt>
      <trkpt lat="45.58985" lon="0.6828">
        <ele>244</ele>
        <time>2013-03-09T17:05:37Z</time>
      </trkpt>
      <trkpt lat="45.58991" lon="0.68219">
        <ele>246</ele>
        <time>2013-03-09T17:05:51Z</time>
      </trkpt>
      <trkpt lat="45.58995" lon="0.68139">
        <ele>249</ele>
        <time>2013-03-09T17:06:09Z</time>
      </trkpt>
      <trkpt lat="45.58994" lon="0.68085">
        <ele>250</ele>
        <time>2013-03-09T17:06:21Z</time>
      </trkpt>
      <trkpt lat="45.58993" lon="0.68073">
        <ele>250</ele>
        <time>2013-03-09T17:06:23Z</time>
      </trkpt>
      <trkpt lat="45.58992" lon="0.68066">
        <ele>249</ele>
        <time>2013-03-09T17:06:24Z</time>
      </trkpt>
      <trkpt lat="45.59" lon="0.67984">
        <ele>245</ele>
        <time>2013-03-09T17:06:34Z</time>
      </trkpt>
      <trkpt lat="45.59019" lon="0.67876">
        <ele>242</ele>
        <time>2013-03-09T17:06:45Z</time>
      </trkpt>
      <trkpt lat="45.59024" lon="0.67818">
        <ele>241</ele>
        <time>2013-03-09T17:06:52Z</time>
      </trkpt>
      <trkpt lat="45.59015" lon="0.6775">
        <ele>239</ele>
        <time>2013-03-09T17:07:05Z</time>
      </trkpt>
      <trkpt lat="45.58989" lon="0.67721">
        <ele>236</ele>
        <time>2013-03-09T17:07:16Z</time>
      </trkpt>
      <trkpt lat="45.58949" lon="0.67693">
        <ele>235</ele>
        <time>2013-03-09T17:07:31Z</time>
      </trkpt>
      <trkpt lat="45.58943" lon="0.67692">
        <ele>234</ele>
        <time>2013-03-09T17:07:40Z</time>
      </trkpt>
      <trkpt lat="45.58943" lon="0.67686">
        <ele>234</ele>
        <time>2013-03-09T17:08:12Z</time>
      </trkpt>
      <trkpt lat="45.5894" lon="0.67688">
        <ele>234</ele>
        <time>2013-03-09T17:08:41Z</time>
      </trkpt>
      <trkpt lat="45.58939" lon="0.67689">
        <ele>234</ele>
        <time>2013-03-09T17:09:04Z</time>
      </trkpt>
      <trkpt lat="45.58939" lon="0.67693">
        <ele>234</ele>
        <time>2013-03-09T17:09:25Z</time>
      </trkpt>
      <trkpt lat="45.5894" lon="0.67694">
        <ele>234</ele>
        <time>2013-03-09T17:09:38Z</time>
      </trkpt>
      <trkpt lat="45.5894" lon="0.67694">
        <ele>234</ele>
        <time>2013-03-09T17:10:04Z</time>
      </trkpt>
      <trkpt lat="45.58941" lon="0.67695">
        <ele>234</ele>
        <time>2013-03-09T17:10:24Z</time>
      </trkpt>
    </trkseg>
  </trk>
</gpx>